<?xml version="1.0" encoding="UTF-8" standalone="no" ?>
<gpx xmlns="http://www.topografix.com/GPX/1/1" xmlns:xsi="http://www.w3.org/2001/XMLSchema-instance" xsi:schemaLocation="http://www.topografix.com/GPX/1/1 http://www.topografix.com/GPX/1/1/gpx.xsd" version="1.1" creator="VisuGPX - https://www.visugpx.com">
  <metadata>
    <name>12424631-Vélo To Terroir</name>
  </metadata>
  <trk>
    <name><![CDATA[12424631-Vélo To Terroir]]></name>
    <trkseg>
      <trkpt lat="45.33721" lon="5.34326">
        <ele>400</ele>
        <time>2021-01-11T14:27:23Z</time>
      </trkpt>
      <trkpt lat="45.33721" lon="5.34314">
        <ele>400</ele>
        <time>2021-01-11T14:27:25Z</time>
      </trkpt>
      <trkpt lat="45.33727" lon="5.34302">
        <ele>399</ele>
        <time>2021-01-11T14:27:27Z</time>
      </trkpt>
      <trkpt lat="45.33749" lon="5.34289">
        <ele>399</ele>
        <time>2021-01-11T14:27:33Z</time>
      </trkpt>
      <trkpt lat="45.3386" lon="5.34234">
        <ele>398</ele>
        <time>2021-01-11T14:28:00Z</time>
      </trkpt>
      <trkpt lat="45.33859" lon="5.34225">
        <ele>398</ele>
        <time>2021-01-11T14:28:02Z</time>
      </trkpt>
      <trkpt lat="45.3386" lon="5.34214">
        <ele>397</ele>
        <time>2021-01-11T14:28:04Z</time>
      </trkpt>
      <trkpt lat="45.33862" lon="5.342">
        <ele>397</ele>
        <time>2021-01-11T14:28:06Z</time>
      </trkpt>
      <trkpt lat="45.3388" lon="5.34146">
        <ele>396</ele>
        <time>2021-01-11T14:28:16Z</time>
      </trkpt>
      <trkpt lat="45.33903" lon="5.34117">
        <ele>395</ele>
        <time>2021-01-11T14:28:23Z</time>
      </trkpt>
      <trkpt lat="45.33946" lon="5.34078">
        <ele>395</ele>
        <time>2021-01-11T14:28:35Z</time>
      </trkpt>
      <trkpt lat="45.33986" lon="5.34042">
        <ele>394</ele>
        <time>2021-01-11T14:28:46Z</time>
      </trkpt>
      <trkpt lat="45.34013" lon="5.34018">
        <ele>393</ele>
        <time>2021-01-11T14:28:53Z</time>
      </trkpt>
      <trkpt lat="45.34027" lon="5.34001">
        <ele>392</ele>
        <time>2021-01-11T14:28:58Z</time>
      </trkpt>
      <trkpt lat="45.34033" lon="5.33991">
        <ele>392</ele>
        <time>2021-01-11T14:29:00Z</time>
      </trkpt>
      <trkpt lat="45.34037" lon="5.33986">
        <ele>392</ele>
        <time>2021-01-11T14:29:01Z</time>
      </trkpt>
      <trkpt lat="45.34072" lon="5.33941">
        <ele>391</ele>
        <time>2021-01-11T14:29:12Z</time>
      </trkpt>
      <trkpt lat="45.34096" lon="5.33909">
        <ele>390</ele>
        <time>2021-01-11T14:29:20Z</time>
      </trkpt>
      <trkpt lat="45.34101" lon="5.33903">
        <ele>390</ele>
        <time>2021-01-11T14:29:21Z</time>
      </trkpt>
      <trkpt lat="45.34119" lon="5.33865">
        <ele>390</ele>
        <time>2021-01-11T14:29:29Z</time>
      </trkpt>
      <trkpt lat="45.34129" lon="5.33836">
        <ele>390</ele>
        <time>2021-01-11T14:29:34Z</time>
      </trkpt>
      <trkpt lat="45.34133" lon="5.33816">
        <ele>390</ele>
        <time>2021-01-11T14:29:38Z</time>
      </trkpt>
      <trkpt lat="45.34128" lon="5.33807">
        <ele>390</ele>
        <time>2021-01-11T14:29:39Z</time>
      </trkpt>
      <trkpt lat="45.34125" lon="5.33797">
        <ele>390</ele>
        <time>2021-01-11T14:29:41Z</time>
      </trkpt>
      <trkpt lat="45.34125" lon="5.33786">
        <ele>390</ele>
        <time>2021-01-11T14:29:43Z</time>
      </trkpt>
      <trkpt lat="45.34127" lon="5.33775">
        <ele>390</ele>
        <time>2021-01-11T14:29:45Z</time>
      </trkpt>
      <trkpt lat="45.34133" lon="5.33766">
        <ele>390</ele>
        <time>2021-01-11T14:29:47Z</time>
      </trkpt>
      <trkpt lat="45.34142" lon="5.3376">
        <ele>390</ele>
        <time>2021-01-11T14:29:49Z</time>
      </trkpt>
      <trkpt lat="45.3415" lon="5.33759">
        <ele>391</ele>
        <time>2021-01-11T14:29:51Z</time>
      </trkpt>
      <trkpt lat="45.34186" lon="5.33679">
        <ele>390</ele>
        <time>2021-01-11T14:30:07Z</time>
      </trkpt>
      <trkpt lat="45.34273" lon="5.3334">
        <ele>384</ele>
        <time>2021-01-11T14:31:06Z</time>
      </trkpt>
      <trkpt lat="45.34305" lon="5.33359">
        <ele>382</ele>
        <time>2021-01-11T14:31:14Z</time>
      </trkpt>
      <trkpt lat="45.34314" lon="5.33359">
        <ele>382</ele>
        <time>2021-01-11T14:31:16Z</time>
      </trkpt>
      <trkpt lat="45.34339" lon="5.33351">
        <ele>380</ele>
        <time>2021-01-11T14:31:22Z</time>
      </trkpt>
      <trkpt lat="45.34383" lon="5.33327">
        <ele>380</ele>
        <time>2021-01-11T14:31:33Z</time>
      </trkpt>
      <trkpt lat="45.34499" lon="5.33229">
        <ele>381</ele>
        <time>2021-01-11T14:32:05Z</time>
      </trkpt>
      <trkpt lat="45.34548" lon="5.33216">
        <ele>381</ele>
        <time>2021-01-11T14:32:16Z</time>
      </trkpt>
      <trkpt lat="45.34758" lon="5.33175">
        <ele>377</ele>
        <time>2021-01-11T14:33:06Z</time>
      </trkpt>
      <trkpt lat="45.34867" lon="5.33157">
        <ele>377</ele>
        <time>2021-01-11T14:33:31Z</time>
      </trkpt>
      <trkpt lat="45.34928" lon="5.31671">
        <ele>368</ele>
        <time>2021-01-11T14:37:36Z</time>
      </trkpt>
      <trkpt lat="45.34932" lon="5.31649">
        <ele>368</ele>
        <time>2021-01-11T14:37:40Z</time>
      </trkpt>
      <trkpt lat="45.34951" lon="5.31595">
        <ele>369</ele>
        <time>2021-01-11T14:37:49Z</time>
      </trkpt>
      <trkpt lat="45.34954" lon="5.31576">
        <ele>368</ele>
        <time>2021-01-11T14:37:53Z</time>
      </trkpt>
      <trkpt lat="45.34874" lon="5.31579">
        <ele>368</ele>
        <time>2021-01-11T14:38:11Z</time>
      </trkpt>
      <trkpt lat="45.34815" lon="5.31579">
        <ele>368</ele>
        <time>2021-01-11T14:38:25Z</time>
      </trkpt>
      <trkpt lat="45.34812" lon="5.31548">
        <ele>368</ele>
        <time>2021-01-11T14:38:30Z</time>
      </trkpt>
      <trkpt lat="45.34814" lon="5.31522">
        <ele>368</ele>
        <time>2021-01-11T14:38:35Z</time>
      </trkpt>
      <trkpt lat="45.34818" lon="5.31499">
        <ele>368</ele>
        <time>2021-01-11T14:38:38Z</time>
      </trkpt>
      <trkpt lat="45.34852" lon="5.31421">
        <ele>368</ele>
        <time>2021-01-11T14:38:53Z</time>
      </trkpt>
      <trkpt lat="45.34857" lon="5.31386">
        <ele>368</ele>
        <time>2021-01-11T14:38:59Z</time>
      </trkpt>
      <trkpt lat="45.34857" lon="5.31321">
        <ele>368</ele>
        <time>2021-01-11T14:39:10Z</time>
      </trkpt>
      <trkpt lat="45.34846" lon="5.31255">
        <ele>368</ele>
        <time>2021-01-11T14:39:21Z</time>
      </trkpt>
      <trkpt lat="45.34865" lon="5.31205">
        <ele>367</ele>
        <time>2021-01-11T14:39:30Z</time>
      </trkpt>
      <trkpt lat="45.34888" lon="5.31155">
        <ele>367</ele>
        <time>2021-01-11T14:39:40Z</time>
      </trkpt>
      <trkpt lat="45.34939" lon="5.3106">
        <ele>366</ele>
        <time>2021-01-11T14:40:00Z</time>
      </trkpt>
      <trkpt lat="45.34952" lon="5.30695">
        <ele>366</ele>
        <time>2021-01-11T14:41:00Z</time>
      </trkpt>
      <trkpt lat="45.34884" lon="5.30703">
        <ele>366</ele>
        <time>2021-01-11T14:41:16Z</time>
      </trkpt>
      <trkpt lat="45.34852" lon="5.30707">
        <ele>367</ele>
        <time>2021-01-11T14:41:23Z</time>
      </trkpt>
      <trkpt lat="45.34827" lon="5.30711">
        <ele>366</ele>
        <time>2021-01-11T14:41:29Z</time>
      </trkpt>
      <trkpt lat="45.34813" lon="5.30713">
        <ele>366</ele>
        <time>2021-01-11T14:41:32Z</time>
      </trkpt>
      <trkpt lat="45.34772" lon="5.3072">
        <ele>367</ele>
        <time>2021-01-11T14:41:42Z</time>
      </trkpt>
      <trkpt lat="45.34759" lon="5.30722">
        <ele>367</ele>
        <time>2021-01-11T14:41:45Z</time>
      </trkpt>
      <trkpt lat="45.34669" lon="5.30733">
        <ele>370</ele>
        <time>2021-01-11T14:42:06Z</time>
      </trkpt>
      <trkpt lat="45.34658" lon="5.30735">
        <ele>370</ele>
        <time>2021-01-11T14:42:09Z</time>
      </trkpt>
      <trkpt lat="45.34652" lon="5.30735">
        <ele>370</ele>
        <time>2021-01-11T14:42:10Z</time>
      </trkpt>
      <trkpt lat="45.34626" lon="5.30734">
        <ele>369</ele>
        <time>2021-01-11T14:42:16Z</time>
      </trkpt>
      <trkpt lat="45.3461" lon="5.30729">
        <ele>369</ele>
        <time>2021-01-11T14:42:20Z</time>
      </trkpt>
      <trkpt lat="45.34461" lon="5.30722">
        <ele>367</ele>
        <time>2021-01-11T14:42:55Z</time>
      </trkpt>
      <trkpt lat="45.3437" lon="5.30697">
        <ele>366</ele>
        <time>2021-01-11T14:43:17Z</time>
      </trkpt>
      <trkpt lat="45.34261" lon="5.30696">
        <ele>365</ele>
        <time>2021-01-11T14:43:42Z</time>
      </trkpt>
      <trkpt lat="45.34157" lon="5.30706">
        <ele>366</ele>
        <time>2021-01-11T14:44:06Z</time>
      </trkpt>
      <trkpt lat="45.34094" lon="5.30687">
        <ele>367</ele>
        <time>2021-01-11T14:44:21Z</time>
      </trkpt>
      <trkpt lat="45.34051" lon="5.30657">
        <ele>368</ele>
        <time>2021-01-11T14:44:33Z</time>
      </trkpt>
      <trkpt lat="45.34049" lon="5.30646">
        <ele>369</ele>
        <time>2021-01-11T14:44:34Z</time>
      </trkpt>
      <trkpt lat="45.34015" lon="5.30672">
        <ele>369</ele>
        <time>2021-01-11T14:44:43Z</time>
      </trkpt>
      <trkpt lat="45.33985" lon="5.30688">
        <ele>370</ele>
        <time>2021-01-11T14:44:51Z</time>
      </trkpt>
      <trkpt lat="45.33974" lon="5.30687">
        <ele>370</ele>
        <time>2021-01-11T14:44:54Z</time>
      </trkpt>
      <trkpt lat="45.33964" lon="5.30681">
        <ele>371</ele>
        <time>2021-01-11T14:44:56Z</time>
      </trkpt>
      <trkpt lat="45.33936" lon="5.30674">
        <ele>372</ele>
        <time>2021-01-11T14:45:03Z</time>
      </trkpt>
      <trkpt lat="45.33928" lon="5.30679">
        <ele>372</ele>
        <time>2021-01-11T14:45:05Z</time>
      </trkpt>
      <trkpt lat="45.3391" lon="5.30731">
        <ele>372</ele>
        <time>2021-01-11T14:45:14Z</time>
      </trkpt>
      <trkpt lat="45.33902" lon="5.30741">
        <ele>372</ele>
        <time>2021-01-11T14:45:17Z</time>
      </trkpt>
      <trkpt lat="45.33867" lon="5.30745">
        <ele>373</ele>
        <time>2021-01-11T14:45:25Z</time>
      </trkpt>
      <trkpt lat="45.33853" lon="5.3075">
        <ele>374</ele>
        <time>2021-01-11T14:45:28Z</time>
      </trkpt>
      <trkpt lat="45.33834" lon="5.30774">
        <ele>375</ele>
        <time>2021-01-11T14:45:34Z</time>
      </trkpt>
      <trkpt lat="45.33822" lon="5.30799">
        <ele>376</ele>
        <time>2021-01-11T14:45:39Z</time>
      </trkpt>
      <trkpt lat="45.338" lon="5.30824">
        <ele>377</ele>
        <time>2021-01-11T14:45:46Z</time>
      </trkpt>
      <trkpt lat="45.33794" lon="5.30825">
        <ele>378</ele>
        <time>2021-01-11T14:45:47Z</time>
      </trkpt>
      <trkpt lat="45.33787" lon="5.30824">
        <ele>378</ele>
        <time>2021-01-11T14:45:49Z</time>
      </trkpt>
      <trkpt lat="45.33776" lon="5.30817">
        <ele>378</ele>
        <time>2021-01-11T14:45:52Z</time>
      </trkpt>
      <trkpt lat="45.33707" lon="5.30696">
        <ele>380</ele>
        <time>2021-01-11T14:46:17Z</time>
      </trkpt>
      <trkpt lat="45.3368" lon="5.30707">
        <ele>381</ele>
        <time>2021-01-11T14:46:24Z</time>
      </trkpt>
      <trkpt lat="45.33346" lon="5.30835">
        <ele>396</ele>
        <time>2021-01-11T14:47:45Z</time>
      </trkpt>
      <trkpt lat="45.33238" lon="5.30881">
        <ele>392</ele>
        <time>2021-01-11T14:48:11Z</time>
      </trkpt>
      <trkpt lat="45.33207" lon="5.30899">
        <ele>391</ele>
        <time>2021-01-11T14:48:19Z</time>
      </trkpt>
      <trkpt lat="45.33164" lon="5.30928">
        <ele>389</ele>
        <time>2021-01-11T14:48:30Z</time>
      </trkpt>
      <trkpt lat="45.33092" lon="5.30977">
        <ele>390</ele>
        <time>2021-01-11T14:48:49Z</time>
      </trkpt>
      <trkpt lat="45.33075" lon="5.30995">
        <ele>390</ele>
        <time>2021-01-11T14:48:53Z</time>
      </trkpt>
      <trkpt lat="45.33025" lon="5.31083">
        <ele>393</ele>
        <time>2021-01-11T14:49:12Z</time>
      </trkpt>
      <trkpt lat="45.32981" lon="5.31176">
        <ele>396</ele>
        <time>2021-01-11T14:49:30Z</time>
      </trkpt>
      <trkpt lat="45.32896" lon="5.31175">
        <ele>404</ele>
        <time>2021-01-11T14:49:50Z</time>
      </trkpt>
      <trkpt lat="45.3286" lon="5.31173">
        <ele>405</ele>
        <time>2021-01-11T14:49:59Z</time>
      </trkpt>
      <trkpt lat="45.32879" lon="5.31014">
        <ele>401</ele>
        <time>2021-01-11T14:50:25Z</time>
      </trkpt>
      <trkpt lat="45.32884" lon="5.3081">
        <ele>397</ele>
        <time>2021-01-11T14:50:59Z</time>
      </trkpt>
      <trkpt lat="45.32877" lon="5.30719">
        <ele>397</ele>
        <time>2021-01-11T14:51:14Z</time>
      </trkpt>
      <trkpt lat="45.32888" lon="5.30691">
        <ele>395</ele>
        <time>2021-01-11T14:51:19Z</time>
      </trkpt>
      <trkpt lat="45.32932" lon="5.30556">
        <ele>394</ele>
        <time>2021-01-11T14:51:43Z</time>
      </trkpt>
      <trkpt lat="45.32948" lon="5.30495">
        <ele>395</ele>
        <time>2021-01-11T14:51:54Z</time>
      </trkpt>
      <trkpt lat="45.32959" lon="5.30442">
        <ele>394</ele>
        <time>2021-01-11T14:52:03Z</time>
      </trkpt>
      <trkpt lat="45.32993" lon="5.30247">
        <ele>391</ele>
        <time>2021-01-11T14:52:36Z</time>
      </trkpt>
      <trkpt lat="45.32994" lon="5.3023">
        <ele>391</ele>
        <time>2021-01-11T14:52:39Z</time>
      </trkpt>
      <trkpt lat="45.33021" lon="5.30039">
        <ele>386</ele>
        <time>2021-01-11T14:53:11Z</time>
      </trkpt>
      <trkpt lat="45.33042" lon="5.29911">
        <ele>385</ele>
        <time>2021-01-11T14:53:33Z</time>
      </trkpt>
      <trkpt lat="45.331" lon="5.29512">
        <ele>378</ele>
        <time>2021-01-11T14:54:39Z</time>
      </trkpt>
      <trkpt lat="45.33103" lon="5.29492">
        <ele>378</ele>
        <time>2021-01-11T14:54:43Z</time>
      </trkpt>
      <trkpt lat="45.33108" lon="5.29469">
        <ele>378</ele>
        <time>2021-01-11T14:54:47Z</time>
      </trkpt>
      <trkpt lat="45.33127" lon="5.29309">
        <ele>376</ele>
        <time>2021-01-11T14:55:13Z</time>
      </trkpt>
      <trkpt lat="45.33128" lon="5.29285">
        <ele>376</ele>
        <time>2021-01-11T14:55:17Z</time>
      </trkpt>
      <trkpt lat="45.33153" lon="5.2908">
        <ele>374</ele>
        <time>2021-01-11T14:55:51Z</time>
      </trkpt>
      <trkpt lat="45.33164" lon="5.29004">
        <ele>375</ele>
        <time>2021-01-11T14:56:04Z</time>
      </trkpt>
      <trkpt lat="45.33104" lon="5.28928">
        <ele>373</ele>
        <time>2021-01-11T14:56:23Z</time>
      </trkpt>
      <trkpt lat="45.3308" lon="5.28888">
        <ele>374</ele>
        <time>2021-01-11T14:56:32Z</time>
      </trkpt>
      <trkpt lat="45.33069" lon="5.28847">
        <ele>376</ele>
        <time>2021-01-11T14:56:39Z</time>
      </trkpt>
      <trkpt lat="45.33023" lon="5.28838">
        <ele>378</ele>
        <time>2021-01-11T14:56:50Z</time>
      </trkpt>
      <trkpt lat="45.32963" lon="5.28793">
        <ele>380</ele>
        <time>2021-01-11T14:57:05Z</time>
      </trkpt>
      <trkpt lat="45.32904" lon="5.28775">
        <ele>384</ele>
        <time>2021-01-11T14:57:20Z</time>
      </trkpt>
      <trkpt lat="45.32775" lon="5.28742">
        <ele>397</ele>
        <time>2021-01-11T14:57:50Z</time>
      </trkpt>
      <trkpt lat="45.32719" lon="5.28762">
        <ele>403</ele>
        <time>2021-01-11T14:58:04Z</time>
      </trkpt>
      <trkpt lat="45.3269" lon="5.28795">
        <ele>406</ele>
        <time>2021-01-11T14:58:12Z</time>
      </trkpt>
      <trkpt lat="45.32654" lon="5.28812">
        <ele>411</ele>
        <time>2021-01-11T14:58:21Z</time>
      </trkpt>
      <trkpt lat="45.32646" lon="5.28787">
        <ele>413</ele>
        <time>2021-01-11T14:58:26Z</time>
      </trkpt>
      <trkpt lat="45.32649" lon="5.28748">
        <ele>413</ele>
        <time>2021-01-11T14:58:32Z</time>
      </trkpt>
      <trkpt lat="45.32662" lon="5.28675">
        <ele>414</ele>
        <time>2021-01-11T14:58:45Z</time>
      </trkpt>
      <trkpt lat="45.32668" lon="5.28616">
        <ele>418</ele>
        <time>2021-01-11T14:58:54Z</time>
      </trkpt>
      <trkpt lat="45.32643" lon="5.28591">
        <ele>425</ele>
        <time>2021-01-11T14:59:01Z</time>
      </trkpt>
      <trkpt lat="45.32606" lon="5.28512">
        <ele>439</ele>
        <time>2021-01-11T14:59:17Z</time>
      </trkpt>
      <trkpt lat="45.32528" lon="5.28228">
        <ele>457</ele>
        <time>2021-01-11T15:00:07Z</time>
      </trkpt>
      <trkpt lat="45.32501" lon="5.28144">
        <ele>463</ele>
        <time>2021-01-11T15:00:22Z</time>
      </trkpt>
      <trkpt lat="45.3251" lon="5.28111">
        <ele>462</ele>
        <time>2021-01-11T15:00:28Z</time>
      </trkpt>
      <trkpt lat="45.32523" lon="5.28089">
        <ele>459</ele>
        <time>2021-01-11T15:00:33Z</time>
      </trkpt>
      <trkpt lat="45.32603" lon="5.2798">
        <ele>443</ele>
        <time>2021-01-11T15:00:59Z</time>
      </trkpt>
      <trkpt lat="45.32616" lon="5.27959">
        <ele>441</ele>
        <time>2021-01-11T15:01:03Z</time>
      </trkpt>
      <trkpt lat="45.32624" lon="5.27943">
        <ele>440</ele>
        <time>2021-01-11T15:01:06Z</time>
      </trkpt>
      <trkpt lat="45.32647" lon="5.27882">
        <ele>438</ele>
        <time>2021-01-11T15:01:18Z</time>
      </trkpt>
      <trkpt lat="45.32649" lon="5.27809">
        <ele>437</ele>
        <time>2021-01-11T15:01:30Z</time>
      </trkpt>
      <trkpt lat="45.32652" lon="5.27785">
        <ele>437</ele>
        <time>2021-01-11T15:01:34Z</time>
      </trkpt>
      <trkpt lat="45.32647" lon="5.27743">
        <ele>437</ele>
        <time>2021-01-11T15:01:41Z</time>
      </trkpt>
      <trkpt lat="45.32655" lon="5.27721">
        <ele>433</ele>
        <time>2021-01-11T15:01:45Z</time>
      </trkpt>
      <trkpt lat="45.32665" lon="5.2764">
        <ele>423</ele>
        <time>2021-01-11T15:01:58Z</time>
      </trkpt>
      <trkpt lat="45.32668" lon="5.27598">
        <ele>418</ele>
        <time>2021-01-11T15:02:05Z</time>
      </trkpt>
      <trkpt lat="45.32667" lon="5.27578">
        <ele>416</ele>
        <time>2021-01-11T15:02:09Z</time>
      </trkpt>
      <trkpt lat="45.32665" lon="5.27568">
        <ele>415</ele>
        <time>2021-01-11T15:02:10Z</time>
      </trkpt>
      <trkpt lat="45.32657" lon="5.27553">
        <ele>413</ele>
        <time>2021-01-11T15:02:13Z</time>
      </trkpt>
      <trkpt lat="45.32599" lon="5.27495">
        <ele>407</ele>
        <time>2021-01-11T15:02:30Z</time>
      </trkpt>
      <trkpt lat="45.32569" lon="5.2745">
        <ele>402</ele>
        <time>2021-01-11T15:02:40Z</time>
      </trkpt>
      <trkpt lat="45.32527" lon="5.27378">
        <ele>397</ele>
        <time>2021-01-11T15:02:56Z</time>
      </trkpt>
      <trkpt lat="45.32521" lon="5.27357">
        <ele>395</ele>
        <time>2021-01-11T15:02:59Z</time>
      </trkpt>
      <trkpt lat="45.32527" lon="5.27274">
        <ele>394</ele>
        <time>2021-01-11T15:03:13Z</time>
      </trkpt>
      <trkpt lat="45.32532" lon="5.27138">
        <ele>395</ele>
        <time>2021-01-11T15:03:35Z</time>
      </trkpt>
      <trkpt lat="45.32478" lon="5.27123">
        <ele>397</ele>
        <time>2021-01-11T15:03:48Z</time>
      </trkpt>
      <trkpt lat="45.32554" lon="5.26683">
        <ele>395</ele>
        <time>2021-01-11T15:05:03Z</time>
      </trkpt>
      <trkpt lat="45.32556" lon="5.26676">
        <ele>395</ele>
        <time>2021-01-11T15:05:04Z</time>
      </trkpt>
      <trkpt lat="45.3257" lon="5.26579">
        <ele>393</ele>
        <time>2021-01-11T15:05:20Z</time>
      </trkpt>
      <trkpt lat="45.32571" lon="5.26529">
        <ele>393</ele>
        <time>2021-01-11T15:05:28Z</time>
      </trkpt>
      <trkpt lat="45.32573" lon="5.26517">
        <ele>393</ele>
        <time>2021-01-11T15:05:30Z</time>
      </trkpt>
      <trkpt lat="45.32552" lon="5.26501">
        <ele>393</ele>
        <time>2021-01-11T15:05:36Z</time>
      </trkpt>
      <trkpt lat="45.32538" lon="5.26476">
        <ele>393</ele>
        <time>2021-01-11T15:05:41Z</time>
      </trkpt>
      <trkpt lat="45.32533" lon="5.26459">
        <ele>393</ele>
        <time>2021-01-11T15:05:44Z</time>
      </trkpt>
      <trkpt lat="45.32531" lon="5.26449">
        <ele>393</ele>
        <time>2021-01-11T15:05:46Z</time>
      </trkpt>
      <trkpt lat="45.32524" lon="5.26385">
        <ele>392</ele>
        <time>2021-01-11T15:05:56Z</time>
      </trkpt>
      <trkpt lat="45.32508" lon="5.26272">
        <ele>392</ele>
        <time>2021-01-11T15:06:15Z</time>
      </trkpt>
      <trkpt lat="45.32506" lon="5.26258">
        <ele>392</ele>
        <time>2021-01-11T15:06:18Z</time>
      </trkpt>
      <trkpt lat="45.32505" lon="5.26252">
        <ele>393</ele>
        <time>2021-01-11T15:06:19Z</time>
      </trkpt>
      <trkpt lat="45.32505" lon="5.26244">
        <ele>393</ele>
        <time>2021-01-11T15:06:20Z</time>
      </trkpt>
      <trkpt lat="45.32496" lon="5.26162">
        <ele>398</ele>
        <time>2021-01-11T15:06:34Z</time>
      </trkpt>
      <trkpt lat="45.32506" lon="5.26113">
        <ele>398</ele>
        <time>2021-01-11T15:06:42Z</time>
      </trkpt>
      <trkpt lat="45.32523" lon="5.26045">
        <ele>400</ele>
        <time>2021-01-11T15:06:54Z</time>
      </trkpt>
      <trkpt lat="45.32536" lon="5.26">
        <ele>402</ele>
        <time>2021-01-11T15:07:02Z</time>
      </trkpt>
      <trkpt lat="45.32527" lon="5.25997">
        <ele>403</ele>
        <time>2021-01-11T15:07:04Z</time>
      </trkpt>
      <trkpt lat="45.32536" lon="5.25969">
        <ele>404</ele>
        <time>2021-01-11T15:07:09Z</time>
      </trkpt>
      <trkpt lat="45.32543" lon="5.25819">
        <ele>417</ele>
        <time>2021-01-11T15:07:34Z</time>
      </trkpt>
      <trkpt lat="45.32548" lon="5.25778">
        <ele>415</ele>
        <time>2021-01-11T15:07:41Z</time>
      </trkpt>
      <trkpt lat="45.32558" lon="5.25785">
        <ele>412</ele>
        <time>2021-01-11T15:07:43Z</time>
      </trkpt>
      <trkpt lat="45.32565" lon="5.25784">
        <ele>411</ele>
        <time>2021-01-11T15:07:45Z</time>
      </trkpt>
      <trkpt lat="45.32568" lon="5.25714">
        <ele>408</ele>
        <time>2021-01-11T15:07:56Z</time>
      </trkpt>
      <trkpt lat="45.32572" lon="5.25691">
        <ele>406</ele>
        <time>2021-01-11T15:08:00Z</time>
      </trkpt>
      <trkpt lat="45.32578" lon="5.25664">
        <ele>404</ele>
        <time>2021-01-11T15:08:05Z</time>
      </trkpt>
      <trkpt lat="45.32588" lon="5.25585">
        <ele>397</ele>
        <time>2021-01-11T15:08:18Z</time>
      </trkpt>
      <trkpt lat="45.3259" lon="5.25522">
        <ele>397</ele>
        <time>2021-01-11T15:08:28Z</time>
      </trkpt>
      <trkpt lat="45.32601" lon="5.25456">
        <ele>396</ele>
        <time>2021-01-11T15:08:40Z</time>
      </trkpt>
      <trkpt lat="45.32616" lon="5.25412">
        <ele>394</ele>
        <time>2021-01-11T15:08:48Z</time>
      </trkpt>
      <trkpt lat="45.32616" lon="5.25406">
        <ele>394</ele>
        <time>2021-01-11T15:08:49Z</time>
      </trkpt>
      <trkpt lat="45.32608" lon="5.25375">
        <ele>395</ele>
        <time>2021-01-11T15:08:54Z</time>
      </trkpt>
      <trkpt lat="45.32599" lon="5.25313">
        <ele>395</ele>
        <time>2021-01-11T15:09:04Z</time>
      </trkpt>
      <trkpt lat="45.32581" lon="5.25218">
        <ele>398</ele>
        <time>2021-01-11T15:09:21Z</time>
      </trkpt>
      <trkpt lat="45.32559" lon="5.25156">
        <ele>403</ele>
        <time>2021-01-11T15:09:32Z</time>
      </trkpt>
      <trkpt lat="45.32507" lon="5.25051">
        <ele>405</ele>
        <time>2021-01-11T15:09:53Z</time>
      </trkpt>
      <trkpt lat="45.32497" lon="5.25024">
        <ele>405</ele>
        <time>2021-01-11T15:09:58Z</time>
      </trkpt>
      <trkpt lat="45.32492" lon="5.24993">
        <ele>405</ele>
        <time>2021-01-11T15:10:03Z</time>
      </trkpt>
      <trkpt lat="45.32483" lon="5.24941">
        <ele>409</ele>
        <time>2021-01-11T15:10:12Z</time>
      </trkpt>
      <trkpt lat="45.32489" lon="5.24913">
        <ele>408</ele>
        <time>2021-01-11T15:10:17Z</time>
      </trkpt>
      <trkpt lat="45.32491" lon="5.24877">
        <ele>405</ele>
        <time>2021-01-11T15:10:23Z</time>
      </trkpt>
      <trkpt lat="45.32494" lon="5.2487">
        <ele>404</ele>
        <time>2021-01-11T15:10:24Z</time>
      </trkpt>
      <trkpt lat="45.32504" lon="5.24865">
        <ele>402</ele>
        <time>2021-01-11T15:10:27Z</time>
      </trkpt>
      <trkpt lat="45.32515" lon="5.24857">
        <ele>400</ele>
        <time>2021-01-11T15:10:30Z</time>
      </trkpt>
      <trkpt lat="45.32521" lon="5.24839">
        <ele>398</ele>
        <time>2021-01-11T15:10:33Z</time>
      </trkpt>
      <trkpt lat="45.32524" lon="5.24817">
        <ele>397</ele>
        <time>2021-01-11T15:10:37Z</time>
      </trkpt>
      <trkpt lat="45.32531" lon="5.24798">
        <ele>396</ele>
        <time>2021-01-11T15:10:40Z</time>
      </trkpt>
      <trkpt lat="45.32552" lon="5.24779">
        <ele>392</ele>
        <time>2021-01-11T15:10:46Z</time>
      </trkpt>
      <trkpt lat="45.32572" lon="5.24742">
        <ele>388</ele>
        <time>2021-01-11T15:10:54Z</time>
      </trkpt>
      <trkpt lat="45.32603" lon="5.24695">
        <ele>386</ele>
        <time>2021-01-11T15:11:04Z</time>
      </trkpt>
      <trkpt lat="45.32642" lon="5.2463">
        <ele>386</ele>
        <time>2021-01-11T15:11:18Z</time>
      </trkpt>
      <trkpt lat="45.32654" lon="5.24618">
        <ele>385</ele>
        <time>2021-01-11T15:11:22Z</time>
      </trkpt>
      <trkpt lat="45.3267" lon="5.24607">
        <ele>385</ele>
        <time>2021-01-11T15:11:26Z</time>
      </trkpt>
      <trkpt lat="45.32706" lon="5.24589">
        <ele>381</ele>
        <time>2021-01-11T15:11:35Z</time>
      </trkpt>
      <trkpt lat="45.3276" lon="5.24549">
        <ele>377</ele>
        <time>2021-01-11T15:11:49Z</time>
      </trkpt>
      <trkpt lat="45.32823" lon="5.24493">
        <ele>374</ele>
        <time>2021-01-11T15:12:06Z</time>
      </trkpt>
      <trkpt lat="45.32861" lon="5.24421">
        <ele>372</ele>
        <time>2021-01-11T15:12:21Z</time>
      </trkpt>
      <trkpt lat="45.32885" lon="5.24401">
        <ele>371</ele>
        <time>2021-01-11T15:12:27Z</time>
      </trkpt>
      <trkpt lat="45.32924" lon="5.24393">
        <ele>371</ele>
        <time>2021-01-11T15:12:37Z</time>
      </trkpt>
      <trkpt lat="45.32965" lon="5.24388">
        <ele>370</ele>
        <time>2021-01-11T15:12:46Z</time>
      </trkpt>
      <trkpt lat="45.32946" lon="5.24337">
        <ele>370</ele>
        <time>2021-01-11T15:12:56Z</time>
      </trkpt>
      <trkpt lat="45.3288" lon="5.2421">
        <ele>367</ele>
        <time>2021-01-11T15:13:22Z</time>
      </trkpt>
      <trkpt lat="45.32872" lon="5.24028">
        <ele>365</ele>
        <time>2021-01-11T15:13:52Z</time>
      </trkpt>
      <trkpt lat="45.32857" lon="5.2394">
        <ele>364</ele>
        <time>2021-01-11T15:14:06Z</time>
      </trkpt>
      <trkpt lat="45.32839" lon="5.2373">
        <ele>363</ele>
        <time>2021-01-11T15:14:41Z</time>
      </trkpt>
      <trkpt lat="45.32817" lon="5.23681">
        <ele>362</ele>
        <time>2021-01-11T15:14:51Z</time>
      </trkpt>
      <trkpt lat="45.32822" lon="5.23517">
        <ele>361</ele>
        <time>2021-01-11T15:15:18Z</time>
      </trkpt>
      <trkpt lat="45.32744" lon="5.23482">
        <ele>361</ele>
        <time>2021-01-11T15:15:37Z</time>
      </trkpt>
      <trkpt lat="45.32589" lon="5.23417">
        <ele>359</ele>
        <time>2021-01-11T15:16:15Z</time>
      </trkpt>
      <trkpt lat="45.3254" lon="5.23412">
        <ele>359</ele>
        <time>2021-01-11T15:16:26Z</time>
      </trkpt>
      <trkpt lat="45.32522" lon="5.23407">
        <ele>360</ele>
        <time>2021-01-11T15:16:30Z</time>
      </trkpt>
      <trkpt lat="45.32487" lon="5.2338">
        <ele>359</ele>
        <time>2021-01-11T15:16:40Z</time>
      </trkpt>
      <trkpt lat="45.32429" lon="5.23341">
        <ele>360</ele>
        <time>2021-01-11T15:16:55Z</time>
      </trkpt>
      <trkpt lat="45.32434" lon="5.23333">
        <ele>360</ele>
        <time>2021-01-11T15:16:56Z</time>
      </trkpt>
      <trkpt lat="45.32429" lon="5.23341">
        <ele>360</ele>
        <time>2021-01-11T15:16:58Z</time>
      </trkpt>
      <trkpt lat="45.32344" lon="5.23366">
        <ele>363</ele>
        <time>2021-01-11T15:17:18Z</time>
      </trkpt>
      <trkpt lat="45.32277" lon="5.23377">
        <ele>368</ele>
        <time>2021-01-11T15:17:34Z</time>
      </trkpt>
      <trkpt lat="45.32117" lon="5.23434">
        <ele>378</ele>
        <time>2021-01-11T15:18:13Z</time>
      </trkpt>
      <trkpt lat="45.3212" lon="5.23468">
        <ele>378</ele>
        <time>2021-01-11T15:18:18Z</time>
      </trkpt>
      <trkpt lat="45.32131" lon="5.23504">
        <ele>378</ele>
        <time>2021-01-11T15:18:25Z</time>
      </trkpt>
      <trkpt lat="45.3214" lon="5.23548">
        <ele>377</ele>
        <time>2021-01-11T15:18:32Z</time>
      </trkpt>
      <trkpt lat="45.32134" lon="5.23561">
        <ele>378</ele>
        <time>2021-01-11T15:18:35Z</time>
      </trkpt>
      <trkpt lat="45.32001" lon="5.23641">
        <ele>385</ele>
        <time>2021-01-11T15:19:09Z</time>
      </trkpt>
      <trkpt lat="45.31966" lon="5.23655">
        <ele>388</ele>
        <time>2021-01-11T15:19:17Z</time>
      </trkpt>
      <trkpt lat="45.31964" lon="5.23712">
        <ele>390</ele>
        <time>2021-01-11T15:19:26Z</time>
      </trkpt>
      <trkpt lat="45.31952" lon="5.23762">
        <ele>393</ele>
        <time>2021-01-11T15:19:35Z</time>
      </trkpt>
      <trkpt lat="45.31903" lon="5.23857">
        <ele>405</ele>
        <time>2021-01-11T15:19:54Z</time>
      </trkpt>
      <trkpt lat="45.31862" lon="5.23822">
        <ele>404</ele>
        <time>2021-01-11T15:20:06Z</time>
      </trkpt>
      <trkpt lat="45.31855" lon="5.23833">
        <ele>405</ele>
        <time>2021-01-11T15:20:08Z</time>
      </trkpt>
      <trkpt lat="45.3184" lon="5.23863">
        <ele>408</ele>
        <time>2021-01-11T15:20:14Z</time>
      </trkpt>
      <trkpt lat="45.31763" lon="5.24032">
        <ele>417</ele>
        <time>2021-01-11T15:20:47Z</time>
      </trkpt>
      <trkpt lat="45.31745" lon="5.2405">
        <ele>418</ele>
        <time>2021-01-11T15:20:52Z</time>
      </trkpt>
      <trkpt lat="45.31721" lon="5.24067">
        <ele>421</ele>
        <time>2021-01-11T15:20:59Z</time>
      </trkpt>
      <trkpt lat="45.31701" lon="5.2407">
        <ele>422</ele>
        <time>2021-01-11T15:21:03Z</time>
      </trkpt>
      <trkpt lat="45.31708" lon="5.24089">
        <ele>423</ele>
        <time>2021-01-11T15:21:07Z</time>
      </trkpt>
      <trkpt lat="45.31739" lon="5.24147">
        <ele>425</ele>
        <time>2021-01-11T15:21:19Z</time>
      </trkpt>
      <trkpt lat="45.31746" lon="5.24174">
        <ele>426</ele>
        <time>2021-01-11T15:21:23Z</time>
      </trkpt>
      <trkpt lat="45.31639" lon="5.24172">
        <ele>431</ele>
        <time>2021-01-11T15:21:48Z</time>
      </trkpt>
      <trkpt lat="45.31582" lon="5.24165">
        <ele>433</ele>
        <time>2021-01-11T15:22:02Z</time>
      </trkpt>
      <trkpt lat="45.31484" lon="5.24181">
        <ele>438</ele>
        <time>2021-01-11T15:22:25Z</time>
      </trkpt>
      <trkpt lat="45.31462" lon="5.2419">
        <ele>438</ele>
        <time>2021-01-11T15:22:30Z</time>
      </trkpt>
      <trkpt lat="45.31445" lon="5.24203">
        <ele>439</ele>
        <time>2021-01-11T15:22:35Z</time>
      </trkpt>
      <trkpt lat="45.31423" lon="5.24243">
        <ele>440</ele>
        <time>2021-01-11T15:22:43Z</time>
      </trkpt>
      <trkpt lat="45.31407" lon="5.24263">
        <ele>441</ele>
        <time>2021-01-11T15:22:48Z</time>
      </trkpt>
      <trkpt lat="45.31383" lon="5.24278">
        <ele>442</ele>
        <time>2021-01-11T15:22:54Z</time>
      </trkpt>
      <trkpt lat="45.31355" lon="5.24291">
        <ele>442</ele>
        <time>2021-01-11T15:23:01Z</time>
      </trkpt>
      <trkpt lat="45.31324" lon="5.24298">
        <ele>443</ele>
        <time>2021-01-11T15:23:08Z</time>
      </trkpt>
      <trkpt lat="45.31256" lon="5.24307">
        <ele>449</ele>
        <time>2021-01-11T15:23:24Z</time>
      </trkpt>
      <trkpt lat="45.31241" lon="5.24328">
        <ele>450</ele>
        <time>2021-01-11T15:23:29Z</time>
      </trkpt>
      <trkpt lat="45.31229" lon="5.24352">
        <ele>451</ele>
        <time>2021-01-11T15:23:34Z</time>
      </trkpt>
      <trkpt lat="45.31218" lon="5.24357">
        <ele>452</ele>
        <time>2021-01-11T15:23:37Z</time>
      </trkpt>
      <trkpt lat="45.31193" lon="5.24378">
        <ele>456</ele>
        <time>2021-01-11T15:23:43Z</time>
      </trkpt>
      <trkpt lat="45.3114" lon="5.24451">
        <ele>466</ele>
        <time>2021-01-11T15:24:01Z</time>
      </trkpt>
      <trkpt lat="45.31127" lon="5.24475">
        <ele>468</ele>
        <time>2021-01-11T15:24:06Z</time>
      </trkpt>
      <trkpt lat="45.31095" lon="5.24515">
        <ele>473</ele>
        <time>2021-01-11T15:24:16Z</time>
      </trkpt>
      <trkpt lat="45.31062" lon="5.24537">
        <ele>475</ele>
        <time>2021-01-11T15:24:24Z</time>
      </trkpt>
      <trkpt lat="45.30979" lon="5.24606">
        <ele>480</ele>
        <time>2021-01-11T15:24:47Z</time>
      </trkpt>
      <trkpt lat="45.30914" lon="5.24689">
        <ele>483</ele>
        <time>2021-01-11T15:25:07Z</time>
      </trkpt>
      <trkpt lat="45.30877" lon="5.24725">
        <ele>487</ele>
        <time>2021-01-11T15:25:17Z</time>
      </trkpt>
      <trkpt lat="45.30833" lon="5.24808">
        <ele>497</ele>
        <time>2021-01-11T15:25:35Z</time>
      </trkpt>
      <trkpt lat="45.30783" lon="5.24959">
        <ele>500</ele>
        <time>2021-01-11T15:26:02Z</time>
      </trkpt>
      <trkpt lat="45.30745" lon="5.25006">
        <ele>503</ele>
        <time>2021-01-11T15:26:14Z</time>
      </trkpt>
      <trkpt lat="45.30736" lon="5.25023">
        <ele>503</ele>
        <time>2021-01-11T15:26:17Z</time>
      </trkpt>
      <trkpt lat="45.3065" lon="5.25007">
        <ele>503</ele>
        <time>2021-01-11T15:26:37Z</time>
      </trkpt>
      <trkpt lat="45.30634" lon="5.24997">
        <ele>505</ele>
        <time>2021-01-11T15:26:42Z</time>
      </trkpt>
      <trkpt lat="45.30596" lon="5.24975">
        <ele>510</ele>
        <time>2021-01-11T15:26:51Z</time>
      </trkpt>
      <trkpt lat="45.3058" lon="5.24976">
        <ele>513</ele>
        <time>2021-01-11T15:26:55Z</time>
      </trkpt>
      <trkpt lat="45.30551" lon="5.24998">
        <ele>516</ele>
        <time>2021-01-11T15:27:03Z</time>
      </trkpt>
      <trkpt lat="45.30499" lon="5.25068">
        <ele>526</ele>
        <time>2021-01-11T15:27:19Z</time>
      </trkpt>
      <trkpt lat="45.30471" lon="5.25092">
        <ele>528</ele>
        <time>2021-01-11T15:27:27Z</time>
      </trkpt>
      <trkpt lat="45.30439" lon="5.25162">
        <ele>538</ele>
        <time>2021-01-11T15:27:41Z</time>
      </trkpt>
      <trkpt lat="45.30407" lon="5.25222">
        <ele>547</ele>
        <time>2021-01-11T15:27:53Z</time>
      </trkpt>
      <trkpt lat="45.30391" lon="5.25274">
        <ele>553</ele>
        <time>2021-01-11T15:28:02Z</time>
      </trkpt>
      <trkpt lat="45.30386" lon="5.25315">
        <ele>557</ele>
        <time>2021-01-11T15:28:09Z</time>
      </trkpt>
      <trkpt lat="45.30377" lon="5.25345">
        <ele>560</ele>
        <time>2021-01-11T15:28:14Z</time>
      </trkpt>
      <trkpt lat="45.3036" lon="5.25386">
        <ele>564</ele>
        <time>2021-01-11T15:28:22Z</time>
      </trkpt>
      <trkpt lat="45.30334" lon="5.25432">
        <ele>570</ele>
        <time>2021-01-11T15:28:32Z</time>
      </trkpt>
      <trkpt lat="45.30319" lon="5.25462">
        <ele>573</ele>
        <time>2021-01-11T15:28:38Z</time>
      </trkpt>
      <trkpt lat="45.30227" lon="5.25681">
        <ele>588</ele>
        <time>2021-01-11T15:29:20Z</time>
      </trkpt>
      <trkpt lat="45.30209" lon="5.25736">
        <ele>592</ele>
        <time>2021-01-11T15:29:30Z</time>
      </trkpt>
      <trkpt lat="45.302" lon="5.25785">
        <ele>595</ele>
        <time>2021-01-11T15:29:38Z</time>
      </trkpt>
      <trkpt lat="45.30185" lon="5.25802">
        <ele>597</ele>
        <time>2021-01-11T15:29:43Z</time>
      </trkpt>
      <trkpt lat="45.30144" lon="5.25781">
        <ele>600</ele>
        <time>2021-01-11T15:29:53Z</time>
      </trkpt>
      <trkpt lat="45.30116" lon="5.25759">
        <ele>600</ele>
        <time>2021-01-11T15:30:00Z</time>
      </trkpt>
      <trkpt lat="45.30072" lon="5.25708">
        <ele>599</ele>
        <time>2021-01-11T15:30:14Z</time>
      </trkpt>
      <trkpt lat="45.30059" lon="5.25688">
        <ele>598</ele>
        <time>2021-01-11T15:30:18Z</time>
      </trkpt>
      <trkpt lat="45.30021" lon="5.25657">
        <ele>598</ele>
        <time>2021-01-11T15:30:28Z</time>
      </trkpt>
      <trkpt lat="45.30002" lon="5.25631">
        <ele>598</ele>
        <time>2021-01-11T15:30:34Z</time>
      </trkpt>
      <trkpt lat="45.29981" lon="5.25618">
        <ele>598</ele>
        <time>2021-01-11T15:30:40Z</time>
      </trkpt>
      <trkpt lat="45.29963" lon="5.25593">
        <ele>598</ele>
        <time>2021-01-11T15:30:46Z</time>
      </trkpt>
      <trkpt lat="45.29946" lon="5.25564">
        <ele>598</ele>
        <time>2021-01-11T15:30:52Z</time>
      </trkpt>
      <trkpt lat="45.2989" lon="5.25526">
        <ele>597</ele>
        <time>2021-01-11T15:31:06Z</time>
      </trkpt>
      <trkpt lat="45.29886" lon="5.25539">
        <ele>597</ele>
        <time>2021-01-11T15:31:09Z</time>
      </trkpt>
      <trkpt lat="45.29875" lon="5.2561">
        <ele>597</ele>
        <time>2021-01-11T15:31:21Z</time>
      </trkpt>
      <trkpt lat="45.29873" lon="5.25659">
        <ele>599</ele>
        <time>2021-01-11T15:31:29Z</time>
      </trkpt>
      <trkpt lat="45.2987" lon="5.25684">
        <ele>601</ele>
        <time>2021-01-11T15:31:33Z</time>
      </trkpt>
      <trkpt lat="45.29836" lon="5.2579">
        <ele>608</ele>
        <time>2021-01-11T15:31:52Z</time>
      </trkpt>
      <trkpt lat="45.29804" lon="5.2585">
        <ele>607</ele>
        <time>2021-01-11T15:32:04Z</time>
      </trkpt>
      <trkpt lat="45.29796" lon="5.25882">
        <ele>609</ele>
        <time>2021-01-11T15:32:10Z</time>
      </trkpt>
      <trkpt lat="45.29798" lon="5.25967">
        <ele>614</ele>
        <time>2021-01-11T15:32:24Z</time>
      </trkpt>
      <trkpt lat="45.29792" lon="5.26011">
        <ele>615</ele>
        <time>2021-01-11T15:32:31Z</time>
      </trkpt>
      <trkpt lat="45.2978" lon="5.26054">
        <ele>614</ele>
        <time>2021-01-11T15:32:39Z</time>
      </trkpt>
      <trkpt lat="45.29767" lon="5.26118">
        <ele>614</ele>
        <time>2021-01-11T15:32:50Z</time>
      </trkpt>
      <trkpt lat="45.29763" lon="5.26153">
        <ele>614</ele>
        <time>2021-01-11T15:32:56Z</time>
      </trkpt>
      <trkpt lat="45.29751" lon="5.26174">
        <ele>614</ele>
        <time>2021-01-11T15:33:00Z</time>
      </trkpt>
      <trkpt lat="45.29529" lon="5.26393">
        <ele>616</ele>
        <time>2021-01-11T15:34:03Z</time>
      </trkpt>
      <trkpt lat="45.29449" lon="5.26494">
        <ele>619</ele>
        <time>2021-01-11T15:34:28Z</time>
      </trkpt>
      <trkpt lat="45.29435" lon="5.2653">
        <ele>619</ele>
        <time>2021-01-11T15:34:35Z</time>
      </trkpt>
      <trkpt lat="45.29431" lon="5.26587">
        <ele>619</ele>
        <time>2021-01-11T15:34:44Z</time>
      </trkpt>
      <trkpt lat="45.2942" lon="5.26634">
        <ele>618</ele>
        <time>2021-01-11T15:34:53Z</time>
      </trkpt>
      <trkpt lat="45.29366" lon="5.26761">
        <ele>615</ele>
        <time>2021-01-11T15:35:17Z</time>
      </trkpt>
      <trkpt lat="45.29342" lon="5.26836">
        <ele>617</ele>
        <time>2021-01-11T15:35:30Z</time>
      </trkpt>
      <trkpt lat="45.29345" lon="5.26863">
        <ele>619</ele>
        <time>2021-01-11T15:35:35Z</time>
      </trkpt>
      <trkpt lat="45.29351" lon="5.26877">
        <ele>619</ele>
        <time>2021-01-11T15:35:38Z</time>
      </trkpt>
      <trkpt lat="45.29357" lon="5.26882">
        <ele>620</ele>
        <time>2021-01-11T15:35:39Z</time>
      </trkpt>
      <trkpt lat="45.29176" lon="5.27323">
        <ele>629</ele>
        <time>2021-01-11T15:37:03Z</time>
      </trkpt>
      <trkpt lat="45.29166" lon="5.27337">
        <ele>629</ele>
        <time>2021-01-11T15:37:06Z</time>
      </trkpt>
      <trkpt lat="45.29155" lon="5.27346">
        <ele>629</ele>
        <time>2021-01-11T15:37:09Z</time>
      </trkpt>
      <trkpt lat="45.29153" lon="5.27362">
        <ele>629</ele>
        <time>2021-01-11T15:37:12Z</time>
      </trkpt>
      <trkpt lat="45.29138" lon="5.27472">
        <ele>628</ele>
        <time>2021-01-11T15:37:30Z</time>
      </trkpt>
      <trkpt lat="45.29129" lon="5.27567">
        <ele>631</ele>
        <time>2021-01-11T15:37:46Z</time>
      </trkpt>
      <trkpt lat="45.29165" lon="5.27911">
        <ele>631</ele>
        <time>2021-01-11T15:38:43Z</time>
      </trkpt>
      <trkpt lat="45.29171" lon="5.27953">
        <ele>632</ele>
        <time>2021-01-11T15:38:50Z</time>
      </trkpt>
      <trkpt lat="45.2917" lon="5.28006">
        <ele>633</ele>
        <time>2021-01-11T15:38:59Z</time>
      </trkpt>
      <trkpt lat="45.29144" lon="5.28097">
        <ele>632</ele>
        <time>2021-01-11T15:39:15Z</time>
      </trkpt>
      <trkpt lat="45.29078" lon="5.2823">
        <ele>635</ele>
        <time>2021-01-11T15:39:42Z</time>
      </trkpt>
      <trkpt lat="45.29005" lon="5.28322">
        <ele>636</ele>
        <time>2021-01-11T15:40:05Z</time>
      </trkpt>
      <trkpt lat="45.28967" lon="5.28362">
        <ele>635</ele>
        <time>2021-01-11T15:40:16Z</time>
      </trkpt>
      <trkpt lat="45.28915" lon="5.28443">
        <ele>634</ele>
        <time>2021-01-11T15:40:34Z</time>
      </trkpt>
      <trkpt lat="45.2887" lon="5.28531">
        <ele>632</ele>
        <time>2021-01-11T15:40:52Z</time>
      </trkpt>
      <trkpt lat="45.28828" lon="5.28564">
        <ele>631</ele>
        <time>2021-01-11T15:41:03Z</time>
      </trkpt>
      <trkpt lat="45.28818" lon="5.28568">
        <ele>632</ele>
        <time>2021-01-11T15:41:05Z</time>
      </trkpt>
      <trkpt lat="45.28781" lon="5.28576">
        <ele>633</ele>
        <time>2021-01-11T15:41:14Z</time>
      </trkpt>
      <trkpt lat="45.28761" lon="5.28579">
        <ele>634</ele>
        <time>2021-01-11T15:41:19Z</time>
      </trkpt>
      <trkpt lat="45.28726" lon="5.28573">
        <ele>636</ele>
        <time>2021-01-11T15:41:27Z</time>
      </trkpt>
      <trkpt lat="45.28564" lon="5.28545">
        <ele>642</ele>
        <time>2021-01-11T15:42:05Z</time>
      </trkpt>
      <trkpt lat="45.28524" lon="5.28545">
        <ele>643</ele>
        <time>2021-01-11T15:42:14Z</time>
      </trkpt>
      <trkpt lat="45.28499" lon="5.28552">
        <ele>643</ele>
        <time>2021-01-11T15:42:20Z</time>
      </trkpt>
      <trkpt lat="45.28422" lon="5.2863">
        <ele>644</ele>
        <time>2021-01-11T15:42:42Z</time>
      </trkpt>
      <trkpt lat="45.28375" lon="5.28686">
        <ele>643</ele>
        <time>2021-01-11T15:42:57Z</time>
      </trkpt>
      <trkpt lat="45.28355" lon="5.28718">
        <ele>642</ele>
        <time>2021-01-11T15:43:04Z</time>
      </trkpt>
      <trkpt lat="45.28317" lon="5.28794">
        <ele>639</ele>
        <time>2021-01-11T15:43:19Z</time>
      </trkpt>
      <trkpt lat="45.28296" lon="5.28842">
        <ele>636</ele>
        <time>2021-01-11T15:43:28Z</time>
      </trkpt>
      <trkpt lat="45.28285" lon="5.28873">
        <ele>634</ele>
        <time>2021-01-11T15:43:34Z</time>
      </trkpt>
      <trkpt lat="45.28287" lon="5.28931">
        <ele>633</ele>
        <time>2021-01-11T15:43:44Z</time>
      </trkpt>
      <trkpt lat="45.28297" lon="5.28978">
        <ele>631</ele>
        <time>2021-01-11T15:43:52Z</time>
      </trkpt>
      <trkpt lat="45.2831" lon="5.29018">
        <ele>630</ele>
        <time>2021-01-11T15:43:59Z</time>
      </trkpt>
      <trkpt lat="45.28362" lon="5.29127">
        <ele>631</ele>
        <time>2021-01-11T15:44:21Z</time>
      </trkpt>
      <trkpt lat="45.28367" lon="5.29162">
        <ele>630</ele>
        <time>2021-01-11T15:44:26Z</time>
      </trkpt>
      <trkpt lat="45.28363" lon="5.29245">
        <ele>628</ele>
        <time>2021-01-11T15:44:40Z</time>
      </trkpt>
      <trkpt lat="45.28346" lon="5.2935">
        <ele>622</ele>
        <time>2021-01-11T15:44:58Z</time>
      </trkpt>
      <trkpt lat="45.28336" lon="5.29436">
        <ele>619</ele>
        <time>2021-01-11T15:45:12Z</time>
      </trkpt>
      <trkpt lat="45.28315" lon="5.29587">
        <ele>611</ele>
        <time>2021-01-11T15:45:37Z</time>
      </trkpt>
      <trkpt lat="45.28312" lon="5.29644">
        <ele>611</ele>
        <time>2021-01-11T15:45:47Z</time>
      </trkpt>
      <trkpt lat="45.28297" lon="5.29718">
        <ele>609</ele>
        <time>2021-01-11T15:46:00Z</time>
      </trkpt>
      <trkpt lat="45.28288" lon="5.29745">
        <ele>608</ele>
        <time>2021-01-11T15:46:04Z</time>
      </trkpt>
      <trkpt lat="45.2828" lon="5.29789">
        <ele>608</ele>
        <time>2021-01-11T15:46:12Z</time>
      </trkpt>
      <trkpt lat="45.28273" lon="5.29807">
        <ele>607</ele>
        <time>2021-01-11T15:46:15Z</time>
      </trkpt>
      <trkpt lat="45.28263" lon="5.29825">
        <ele>607</ele>
        <time>2021-01-11T15:46:19Z</time>
      </trkpt>
      <trkpt lat="45.28244" lon="5.2984">
        <ele>606</ele>
        <time>2021-01-11T15:46:24Z</time>
      </trkpt>
      <trkpt lat="45.28233" lon="5.29802">
        <ele>607</ele>
        <time>2021-01-11T15:46:31Z</time>
      </trkpt>
      <trkpt lat="45.28223" lon="5.29745">
        <ele>609</ele>
        <time>2021-01-11T15:46:41Z</time>
      </trkpt>
      <trkpt lat="45.28196" lon="5.29663">
        <ele>614</ele>
        <time>2021-01-11T15:46:55Z</time>
      </trkpt>
      <trkpt lat="45.2816" lon="5.29618">
        <ele>615</ele>
        <time>2021-01-11T15:47:07Z</time>
      </trkpt>
      <trkpt lat="45.28106" lon="5.29594">
        <ele>620</ele>
        <time>2021-01-11T15:47:20Z</time>
      </trkpt>
      <trkpt lat="45.28068" lon="5.29566">
        <ele>624</ele>
        <time>2021-01-11T15:47:30Z</time>
      </trkpt>
      <trkpt lat="45.28042" lon="5.29586">
        <ele>628</ele>
        <time>2021-01-11T15:47:37Z</time>
      </trkpt>
      <trkpt lat="45.27995" lon="5.29591">
        <ele>634</ele>
        <time>2021-01-11T15:47:48Z</time>
      </trkpt>
      <trkpt lat="45.27905" lon="5.29547">
        <ele>645</ele>
        <time>2021-01-11T15:48:10Z</time>
      </trkpt>
      <trkpt lat="45.27867" lon="5.29544">
        <ele>648</ele>
        <time>2021-01-11T15:48:19Z</time>
      </trkpt>
      <trkpt lat="45.27832" lon="5.29521">
        <ele>651</ele>
        <time>2021-01-11T15:48:28Z</time>
      </trkpt>
      <trkpt lat="45.27786" lon="5.29516">
        <ele>651</ele>
        <time>2021-01-11T15:48:39Z</time>
      </trkpt>
      <trkpt lat="45.27617" lon="5.29485">
        <ele>656</ele>
        <time>2021-01-11T15:49:18Z</time>
      </trkpt>
      <trkpt lat="45.27591" lon="5.29473">
        <ele>656</ele>
        <time>2021-01-11T15:49:25Z</time>
      </trkpt>
      <trkpt lat="45.27566" lon="5.29453">
        <ele>656</ele>
        <time>2021-01-11T15:49:31Z</time>
      </trkpt>
      <trkpt lat="45.27489" lon="5.29377">
        <ele>653</ele>
        <time>2021-01-11T15:49:53Z</time>
      </trkpt>
      <trkpt lat="45.27478" lon="5.29363">
        <ele>652</ele>
        <time>2021-01-11T15:49:57Z</time>
      </trkpt>
      <trkpt lat="45.27469" lon="5.29347">
        <ele>651</ele>
        <time>2021-01-11T15:50:00Z</time>
      </trkpt>
      <trkpt lat="45.27463" lon="5.29327">
        <ele>650</ele>
        <time>2021-01-11T15:50:04Z</time>
      </trkpt>
      <trkpt lat="45.27426" lon="5.29151">
        <ele>647</ele>
        <time>2021-01-11T15:50:34Z</time>
      </trkpt>
      <trkpt lat="45.27421" lon="5.29111">
        <ele>647</ele>
        <time>2021-01-11T15:50:41Z</time>
      </trkpt>
      <trkpt lat="45.27413" lon="5.29023">
        <ele>647</ele>
        <time>2021-01-11T15:50:55Z</time>
      </trkpt>
      <trkpt lat="45.27401" lon="5.28966">
        <ele>646</ele>
        <time>2021-01-11T15:51:05Z</time>
      </trkpt>
      <trkpt lat="45.27395" lon="5.2895">
        <ele>645</ele>
        <time>2021-01-11T15:51:08Z</time>
      </trkpt>
      <trkpt lat="45.27372" lon="5.28926">
        <ele>644</ele>
        <time>2021-01-11T15:51:15Z</time>
      </trkpt>
      <trkpt lat="45.27245" lon="5.28826">
        <ele>638</ele>
        <time>2021-01-11T15:51:49Z</time>
      </trkpt>
      <trkpt lat="45.27233" lon="5.2882">
        <ele>638</ele>
        <time>2021-01-11T15:51:52Z</time>
      </trkpt>
      <trkpt lat="45.27222" lon="5.28825">
        <ele>638</ele>
        <time>2021-01-11T15:51:54Z</time>
      </trkpt>
      <trkpt lat="45.27207" lon="5.28859">
        <ele>638</ele>
        <time>2021-01-11T15:52:01Z</time>
      </trkpt>
      <trkpt lat="45.27196" lon="5.28869">
        <ele>638</ele>
        <time>2021-01-11T15:52:04Z</time>
      </trkpt>
      <trkpt lat="45.27185" lon="5.28874">
        <ele>638</ele>
        <time>2021-01-11T15:52:07Z</time>
      </trkpt>
      <trkpt lat="45.27169" lon="5.28868">
        <ele>638</ele>
        <time>2021-01-11T15:52:10Z</time>
      </trkpt>
      <trkpt lat="45.27158" lon="5.28854">
        <ele>638</ele>
        <time>2021-01-11T15:52:14Z</time>
      </trkpt>
      <trkpt lat="45.2715" lon="5.28822">
        <ele>638</ele>
        <time>2021-01-11T15:52:19Z</time>
      </trkpt>
      <trkpt lat="45.27142" lon="5.28806">
        <ele>638</ele>
        <time>2021-01-11T15:52:23Z</time>
      </trkpt>
      <trkpt lat="45.27131" lon="5.28832">
        <ele>639</ele>
        <time>2021-01-11T15:52:28Z</time>
      </trkpt>
      <trkpt lat="45.2702" lon="5.29189">
        <ele>644</ele>
        <time>2021-01-11T15:53:32Z</time>
      </trkpt>
      <trkpt lat="45.2701" lon="5.29207">
        <ele>643</ele>
        <time>2021-01-11T15:53:36Z</time>
      </trkpt>
      <trkpt lat="45.26996" lon="5.29216">
        <ele>642</ele>
        <time>2021-01-11T15:53:39Z</time>
      </trkpt>
      <trkpt lat="45.26966" lon="5.29227">
        <ele>642</ele>
        <time>2021-01-11T15:53:46Z</time>
      </trkpt>
      <trkpt lat="45.26983" lon="5.29264">
        <ele>641</ele>
        <time>2021-01-11T15:53:54Z</time>
      </trkpt>
      <trkpt lat="45.27349" lon="5.29927">
        <ele>657</ele>
        <time>2021-01-11T15:56:12Z</time>
      </trkpt>
      <trkpt lat="45.27382" lon="5.29997">
        <ele>662</ele>
        <time>2021-01-11T15:56:26Z</time>
      </trkpt>
      <trkpt lat="45.27394" lon="5.301">
        <ele>663</ele>
        <time>2021-01-11T15:56:43Z</time>
      </trkpt>
      <trkpt lat="45.2739" lon="5.30198">
        <ele>657</ele>
        <time>2021-01-11T15:56:59Z</time>
      </trkpt>
      <trkpt lat="45.27378" lon="5.30344">
        <ele>658</ele>
        <time>2021-01-11T15:57:23Z</time>
      </trkpt>
      <trkpt lat="45.27393" lon="5.30555">
        <ele>655</ele>
        <time>2021-01-11T15:57:58Z</time>
      </trkpt>
      <trkpt lat="45.27397" lon="5.30675">
        <ele>651</ele>
        <time>2021-01-11T15:58:18Z</time>
      </trkpt>
      <trkpt lat="45.27396" lon="5.30983">
        <ele>645</ele>
        <time>2021-01-11T15:59:09Z</time>
      </trkpt>
      <trkpt lat="45.2744" lon="5.31059">
        <ele>647</ele>
        <time>2021-01-11T15:59:25Z</time>
      </trkpt>
      <trkpt lat="45.27481" lon="5.31166">
        <ele>653</ele>
        <time>2021-01-11T15:59:45Z</time>
      </trkpt>
      <trkpt lat="45.27489" lon="5.31194">
        <ele>654</ele>
        <time>2021-01-11T15:59:50Z</time>
      </trkpt>
      <trkpt lat="45.27481" lon="5.31276">
        <ele>656</ele>
        <time>2021-01-11T16:00:03Z</time>
      </trkpt>
      <trkpt lat="45.27492" lon="5.31334">
        <ele>658</ele>
        <time>2021-01-11T16:00:13Z</time>
      </trkpt>
      <trkpt lat="45.27477" lon="5.31426">
        <ele>661</ele>
        <time>2021-01-11T16:00:29Z</time>
      </trkpt>
      <trkpt lat="45.27502" lon="5.31511">
        <ele>662</ele>
        <time>2021-01-11T16:00:44Z</time>
      </trkpt>
      <trkpt lat="45.27503" lon="5.31574">
        <ele>664</ele>
        <time>2021-01-11T16:00:54Z</time>
      </trkpt>
      <trkpt lat="45.27475" lon="5.31658">
        <ele>671</ele>
        <time>2021-01-11T16:01:10Z</time>
      </trkpt>
      <trkpt lat="45.27486" lon="5.31765">
        <ele>672</ele>
        <time>2021-01-11T16:01:27Z</time>
      </trkpt>
      <trkpt lat="45.27522" lon="5.31809">
        <ele>673</ele>
        <time>2021-01-11T16:01:38Z</time>
      </trkpt>
      <trkpt lat="45.2758" lon="5.31869">
        <ele>677</ele>
        <time>2021-01-11T16:01:55Z</time>
      </trkpt>
      <trkpt lat="45.27602" lon="5.31916">
        <ele>679</ele>
        <time>2021-01-11T16:02:04Z</time>
      </trkpt>
      <trkpt lat="45.27607" lon="5.32024">
        <ele>680</ele>
        <time>2021-01-11T16:02:22Z</time>
      </trkpt>
      <trkpt lat="45.27742" lon="5.3238">
        <ele>696</ele>
        <time>2021-01-11T16:03:29Z</time>
      </trkpt>
      <trkpt lat="45.27845" lon="5.32753">
        <ele>709</ele>
        <time>2021-01-11T16:04:35Z</time>
      </trkpt>
      <trkpt lat="45.27963" lon="5.33158">
        <ele>717</ele>
        <time>2021-01-11T16:05:47Z</time>
      </trkpt>
      <trkpt lat="45.27999" lon="5.33297">
        <ele>715</ele>
        <time>2021-01-11T16:06:11Z</time>
      </trkpt>
      <trkpt lat="45.28013" lon="5.33321">
        <ele>714</ele>
        <time>2021-01-11T16:06:16Z</time>
      </trkpt>
      <trkpt lat="45.28034" lon="5.33336">
        <ele>714</ele>
        <time>2021-01-11T16:06:22Z</time>
      </trkpt>
      <trkpt lat="45.28136" lon="5.33388">
        <ele>713</ele>
        <time>2021-01-11T16:06:47Z</time>
      </trkpt>
      <trkpt lat="45.28228" lon="5.33479">
        <ele>707</ele>
        <time>2021-01-11T16:07:13Z</time>
      </trkpt>
      <trkpt lat="45.28279" lon="5.33534">
        <ele>701</ele>
        <time>2021-01-11T16:07:28Z</time>
      </trkpt>
      <trkpt lat="45.2829" lon="5.33553">
        <ele>698</ele>
        <time>2021-01-11T16:07:32Z</time>
      </trkpt>
      <trkpt lat="45.28294" lon="5.33569">
        <ele>696</ele>
        <time>2021-01-11T16:07:35Z</time>
      </trkpt>
      <trkpt lat="45.28297" lon="5.33588">
        <ele>694</ele>
        <time>2021-01-11T16:07:38Z</time>
      </trkpt>
      <trkpt lat="45.28296" lon="5.33609">
        <ele>692</ele>
        <time>2021-01-11T16:07:41Z</time>
      </trkpt>
      <trkpt lat="45.2828" lon="5.33681">
        <ele>684</ele>
        <time>2021-01-11T16:07:54Z</time>
      </trkpt>
      <trkpt lat="45.2828" lon="5.3371">
        <ele>682</ele>
        <time>2021-01-11T16:07:59Z</time>
      </trkpt>
      <trkpt lat="45.28324" lon="5.33961">
        <ele>672</ele>
        <time>2021-01-11T16:08:41Z</time>
      </trkpt>
      <trkpt lat="45.28325" lon="5.33982">
        <ele>671</ele>
        <time>2021-01-11T16:08:45Z</time>
      </trkpt>
      <trkpt lat="45.28321" lon="5.34082">
        <ele>672</ele>
        <time>2021-01-11T16:09:01Z</time>
      </trkpt>
      <trkpt lat="45.283" lon="5.34165">
        <ele>671</ele>
        <time>2021-01-11T16:09:16Z</time>
      </trkpt>
      <trkpt lat="45.28256" lon="5.3429">
        <ele>676</ele>
        <time>2021-01-11T16:09:39Z</time>
      </trkpt>
      <trkpt lat="45.28211" lon="5.34374">
        <ele>669</ele>
        <time>2021-01-11T16:09:56Z</time>
      </trkpt>
      <trkpt lat="45.28204" lon="5.34426">
        <ele>667</ele>
        <time>2021-01-11T16:10:05Z</time>
      </trkpt>
      <trkpt lat="45.28191" lon="5.34496">
        <ele>664</ele>
        <time>2021-01-11T16:10:16Z</time>
      </trkpt>
      <trkpt lat="45.28182" lon="5.34558">
        <ele>663</ele>
        <time>2021-01-11T16:10:27Z</time>
      </trkpt>
      <trkpt lat="45.28169" lon="5.346">
        <ele>662</ele>
        <time>2021-01-11T16:10:34Z</time>
      </trkpt>
      <trkpt lat="45.28148" lon="5.34651">
        <ele>659</ele>
        <time>2021-01-11T16:10:44Z</time>
      </trkpt>
      <trkpt lat="45.28142" lon="5.34677">
        <ele>657</ele>
        <time>2021-01-11T16:10:49Z</time>
      </trkpt>
      <trkpt lat="45.2815" lon="5.34749">
        <ele>655</ele>
        <time>2021-01-11T16:11:01Z</time>
      </trkpt>
      <trkpt lat="45.28142" lon="5.34769">
        <ele>654</ele>
        <time>2021-01-11T16:11:04Z</time>
      </trkpt>
      <trkpt lat="45.28122" lon="5.3479">
        <ele>650</ele>
        <time>2021-01-11T16:11:10Z</time>
      </trkpt>
      <trkpt lat="45.28103" lon="5.34821">
        <ele>647</ele>
        <time>2021-01-11T16:11:17Z</time>
      </trkpt>
      <trkpt lat="45.28084" lon="5.34861">
        <ele>642</ele>
        <time>2021-01-11T16:11:25Z</time>
      </trkpt>
      <trkpt lat="45.28081" lon="5.34883">
        <ele>640</ele>
        <time>2021-01-11T16:11:29Z</time>
      </trkpt>
      <trkpt lat="45.28082" lon="5.349">
        <ele>640</ele>
        <time>2021-01-11T16:11:31Z</time>
      </trkpt>
      <trkpt lat="45.2809" lon="5.34912">
        <ele>641</ele>
        <time>2021-01-11T16:11:34Z</time>
      </trkpt>
      <trkpt lat="45.28122" lon="5.34925">
        <ele>646</ele>
        <time>2021-01-11T16:11:42Z</time>
      </trkpt>
      <trkpt lat="45.28188" lon="5.34987">
        <ele>643</ele>
        <time>2021-01-11T16:12:00Z</time>
      </trkpt>
      <trkpt lat="45.28255" lon="5.35014">
        <ele>642</ele>
        <time>2021-01-11T16:12:17Z</time>
      </trkpt>
      <trkpt lat="45.28271" lon="5.35028">
        <ele>639</ele>
        <time>2021-01-11T16:12:21Z</time>
      </trkpt>
      <trkpt lat="45.28293" lon="5.35055">
        <ele>635</ele>
        <time>2021-01-11T16:12:28Z</time>
      </trkpt>
      <trkpt lat="45.28321" lon="5.35123">
        <ele>631</ele>
        <time>2021-01-11T16:12:41Z</time>
      </trkpt>
      <trkpt lat="45.28332" lon="5.35138">
        <ele>631</ele>
        <time>2021-01-11T16:12:44Z</time>
      </trkpt>
      <trkpt lat="45.28343" lon="5.35145">
        <ele>630</ele>
        <time>2021-01-11T16:12:47Z</time>
      </trkpt>
      <trkpt lat="45.28379" lon="5.35145">
        <ele>629</ele>
        <time>2021-01-11T16:12:55Z</time>
      </trkpt>
      <trkpt lat="45.28392" lon="5.35161">
        <ele>628</ele>
        <time>2021-01-11T16:12:59Z</time>
      </trkpt>
      <trkpt lat="45.28394" lon="5.35147">
        <ele>629</ele>
        <time>2021-01-11T16:13:02Z</time>
      </trkpt>
      <trkpt lat="45.28403" lon="5.3512">
        <ele>630</ele>
        <time>2021-01-11T16:13:07Z</time>
      </trkpt>
      <trkpt lat="45.28409" lon="5.35086">
        <ele>631</ele>
        <time>2021-01-11T16:13:13Z</time>
      </trkpt>
      <trkpt lat="45.28407" lon="5.34808">
        <ele>634</ele>
        <time>2021-01-11T16:13:58Z</time>
      </trkpt>
      <trkpt lat="45.28408" lon="5.34748">
        <ele>636</ele>
        <time>2021-01-11T16:14:08Z</time>
      </trkpt>
      <trkpt lat="45.28411" lon="5.34727">
        <ele>638</ele>
        <time>2021-01-11T16:14:12Z</time>
      </trkpt>
      <trkpt lat="45.28419" lon="5.34712">
        <ele>639</ele>
        <time>2021-01-11T16:14:15Z</time>
      </trkpt>
      <trkpt lat="45.2844" lon="5.34687">
        <ele>640</ele>
        <time>2021-01-11T16:14:21Z</time>
      </trkpt>
      <trkpt lat="45.28525" lon="5.34625">
        <ele>638</ele>
        <time>2021-01-11T16:14:43Z</time>
      </trkpt>
      <trkpt lat="45.28586" lon="5.34603">
        <ele>631</ele>
        <time>2021-01-11T16:14:58Z</time>
      </trkpt>
      <trkpt lat="45.28595" lon="5.3459">
        <ele>632</ele>
        <time>2021-01-11T16:15:01Z</time>
      </trkpt>
      <trkpt lat="45.28608" lon="5.34551">
        <ele>633</ele>
        <time>2021-01-11T16:15:08Z</time>
      </trkpt>
      <trkpt lat="45.28628" lon="5.3448">
        <ele>632</ele>
        <time>2021-01-11T16:15:21Z</time>
      </trkpt>
      <trkpt lat="45.28668" lon="5.34347">
        <ele>629</ele>
        <time>2021-01-11T16:15:44Z</time>
      </trkpt>
      <trkpt lat="45.28678" lon="5.34331">
        <ele>629</ele>
        <time>2021-01-11T16:15:48Z</time>
      </trkpt>
      <trkpt lat="45.28692" lon="5.34317">
        <ele>628</ele>
        <time>2021-01-11T16:15:52Z</time>
      </trkpt>
      <trkpt lat="45.28703" lon="5.34311">
        <ele>628</ele>
        <time>2021-01-11T16:15:55Z</time>
      </trkpt>
      <trkpt lat="45.28716" lon="5.34308">
        <ele>626</ele>
        <time>2021-01-11T16:15:58Z</time>
      </trkpt>
      <trkpt lat="45.28751" lon="5.34307">
        <ele>621</ele>
        <time>2021-01-11T16:16:06Z</time>
      </trkpt>
      <trkpt lat="45.28839" lon="5.34312">
        <ele>613</ele>
        <time>2021-01-11T16:16:27Z</time>
      </trkpt>
      <trkpt lat="45.29003" lon="5.34252">
        <ele>605</ele>
        <time>2021-01-11T16:17:06Z</time>
      </trkpt>
      <trkpt lat="45.29015" lon="5.34242">
        <ele>604</ele>
        <time>2021-01-11T16:17:09Z</time>
      </trkpt>
      <trkpt lat="45.29022" lon="5.34226">
        <ele>603</ele>
        <time>2021-01-11T16:17:12Z</time>
      </trkpt>
      <trkpt lat="45.29022" lon="5.34207">
        <ele>603</ele>
        <time>2021-01-11T16:17:16Z</time>
      </trkpt>
      <trkpt lat="45.29014" lon="5.34188">
        <ele>603</ele>
        <time>2021-01-11T16:17:19Z</time>
      </trkpt>
      <trkpt lat="45.29004" lon="5.34172">
        <ele>604</ele>
        <time>2021-01-11T16:17:23Z</time>
      </trkpt>
      <trkpt lat="45.28946" lon="5.34122">
        <ele>603</ele>
        <time>2021-01-11T16:17:39Z</time>
      </trkpt>
      <trkpt lat="45.28917" lon="5.34068">
        <ele>601</ele>
        <time>2021-01-11T16:17:50Z</time>
      </trkpt>
      <trkpt lat="45.28894" lon="5.34015">
        <ele>601</ele>
        <time>2021-01-11T16:18:00Z</time>
      </trkpt>
      <trkpt lat="45.28886" lon="5.33979">
        <ele>599</ele>
        <time>2021-01-11T16:18:06Z</time>
      </trkpt>
      <trkpt lat="45.28885" lon="5.33928">
        <ele>595</ele>
        <time>2021-01-11T16:18:15Z</time>
      </trkpt>
      <trkpt lat="45.28881" lon="5.33901">
        <ele>595</ele>
        <time>2021-01-11T16:18:19Z</time>
      </trkpt>
      <trkpt lat="45.28867" lon="5.33862">
        <ele>595</ele>
        <time>2021-01-11T16:18:26Z</time>
      </trkpt>
      <trkpt lat="45.28848" lon="5.33801">
        <ele>598</ele>
        <time>2021-01-11T16:18:37Z</time>
      </trkpt>
      <trkpt lat="45.28849" lon="5.33784">
        <ele>599</ele>
        <time>2021-01-11T16:18:40Z</time>
      </trkpt>
      <trkpt lat="45.28859" lon="5.33772">
        <ele>598</ele>
        <time>2021-01-11T16:18:43Z</time>
      </trkpt>
      <trkpt lat="45.28885" lon="5.33763">
        <ele>596</ele>
        <time>2021-01-11T16:18:49Z</time>
      </trkpt>
      <trkpt lat="45.28913" lon="5.33761">
        <ele>593</ele>
        <time>2021-01-11T16:18:56Z</time>
      </trkpt>
      <trkpt lat="45.28947" lon="5.33776">
        <ele>588</ele>
        <time>2021-01-11T16:19:04Z</time>
      </trkpt>
      <trkpt lat="45.2896" lon="5.33774">
        <ele>587</ele>
        <time>2021-01-11T16:19:07Z</time>
      </trkpt>
      <trkpt lat="45.29012" lon="5.33754">
        <ele>585</ele>
        <time>2021-01-11T16:19:20Z</time>
      </trkpt>
      <trkpt lat="45.29069" lon="5.33744">
        <ele>581</ele>
        <time>2021-01-11T16:19:33Z</time>
      </trkpt>
      <trkpt lat="45.29099" lon="5.33743">
        <ele>579</ele>
        <time>2021-01-11T16:19:40Z</time>
      </trkpt>
      <trkpt lat="45.29187" lon="5.33759">
        <ele>572</ele>
        <time>2021-01-11T16:20:01Z</time>
      </trkpt>
      <trkpt lat="45.2932" lon="5.33771">
        <ele>566</ele>
        <time>2021-01-11T16:20:32Z</time>
      </trkpt>
      <trkpt lat="45.29355" lon="5.3377">
        <ele>565</ele>
        <time>2021-01-11T16:20:40Z</time>
      </trkpt>
      <trkpt lat="45.29396" lon="5.33762">
        <ele>567</ele>
        <time>2021-01-11T16:20:50Z</time>
      </trkpt>
      <trkpt lat="45.29438" lon="5.33761">
        <ele>567</ele>
        <time>2021-01-11T16:21:00Z</time>
      </trkpt>
      <trkpt lat="45.29451" lon="5.33769">
        <ele>565</ele>
        <time>2021-01-11T16:21:03Z</time>
      </trkpt>
      <trkpt lat="45.2947" lon="5.33771">
        <ele>565</ele>
        <time>2021-01-11T16:21:08Z</time>
      </trkpt>
      <trkpt lat="45.29536" lon="5.33788">
        <ele>559</ele>
        <time>2021-01-11T16:21:23Z</time>
      </trkpt>
      <trkpt lat="45.29559" lon="5.33791">
        <ele>556</ele>
        <time>2021-01-11T16:21:29Z</time>
      </trkpt>
      <trkpt lat="45.29589" lon="5.33772">
        <ele>556</ele>
        <time>2021-01-11T16:21:36Z</time>
      </trkpt>
      <trkpt lat="45.29628" lon="5.33706">
        <ele>554</ele>
        <time>2021-01-11T16:21:50Z</time>
      </trkpt>
      <trkpt lat="45.29648" lon="5.33695">
        <ele>551</ele>
        <time>2021-01-11T16:21:55Z</time>
      </trkpt>
      <trkpt lat="45.29672" lon="5.33691">
        <ele>546</ele>
        <time>2021-01-11T16:22:01Z</time>
      </trkpt>
      <trkpt lat="45.29694" lon="5.33682">
        <ele>544</ele>
        <time>2021-01-11T16:22:06Z</time>
      </trkpt>
      <trkpt lat="45.29718" lon="5.33675">
        <ele>541</ele>
        <time>2021-01-11T16:22:12Z</time>
      </trkpt>
      <trkpt lat="45.29746" lon="5.33684">
        <ele>536</ele>
        <time>2021-01-11T16:22:19Z</time>
      </trkpt>
      <trkpt lat="45.29774" lon="5.33676">
        <ele>534</ele>
        <time>2021-01-11T16:22:25Z</time>
      </trkpt>
      <trkpt lat="45.29799" lon="5.3369">
        <ele>530</ele>
        <time>2021-01-11T16:22:32Z</time>
      </trkpt>
      <trkpt lat="45.29812" lon="5.33694">
        <ele>528</ele>
        <time>2021-01-11T16:22:35Z</time>
      </trkpt>
      <trkpt lat="45.29825" lon="5.33691">
        <ele>528</ele>
        <time>2021-01-11T16:22:38Z</time>
      </trkpt>
      <trkpt lat="45.29845" lon="5.33674">
        <ele>529</ele>
        <time>2021-01-11T16:22:43Z</time>
      </trkpt>
      <trkpt lat="45.29858" lon="5.33668">
        <ele>529</ele>
        <time>2021-01-11T16:22:47Z</time>
      </trkpt>
      <trkpt lat="45.29866" lon="5.33671">
        <ele>529</ele>
        <time>2021-01-11T16:22:49Z</time>
      </trkpt>
      <trkpt lat="45.29879" lon="5.3369">
        <ele>525</ele>
        <time>2021-01-11T16:22:53Z</time>
      </trkpt>
      <trkpt lat="45.29889" lon="5.337">
        <ele>523</ele>
        <time>2021-01-11T16:22:56Z</time>
      </trkpt>
      <trkpt lat="45.299" lon="5.33705">
        <ele>521</ele>
        <time>2021-01-11T16:22:58Z</time>
      </trkpt>
      <trkpt lat="45.29919" lon="5.33708">
        <ele>519</ele>
        <time>2021-01-11T16:23:03Z</time>
      </trkpt>
      <trkpt lat="45.29936" lon="5.33704">
        <ele>517</ele>
        <time>2021-01-11T16:23:07Z</time>
      </trkpt>
      <trkpt lat="45.29939" lon="5.33713">
        <ele>515</ele>
        <time>2021-01-11T16:23:09Z</time>
      </trkpt>
      <trkpt lat="45.29926" lon="5.33754">
        <ele>508</ele>
        <time>2021-01-11T16:23:16Z</time>
      </trkpt>
      <trkpt lat="45.29936" lon="5.33741">
        <ele>509</ele>
        <time>2021-01-11T16:23:19Z</time>
      </trkpt>
      <trkpt lat="45.29969" lon="5.33665">
        <ele>522</ele>
        <time>2021-01-11T16:23:34Z</time>
      </trkpt>
      <trkpt lat="45.29975" lon="5.33664">
        <ele>522</ele>
        <time>2021-01-11T16:23:35Z</time>
      </trkpt>
      <trkpt lat="45.29987" lon="5.33654">
        <ele>523</ele>
        <time>2021-01-11T16:23:38Z</time>
      </trkpt>
      <trkpt lat="45.30008" lon="5.33622">
        <ele>529</ele>
        <time>2021-01-11T16:23:46Z</time>
      </trkpt>
      <trkpt lat="45.30019" lon="5.33614">
        <ele>532</ele>
        <time>2021-01-11T16:23:49Z</time>
      </trkpt>
      <trkpt lat="45.30029" lon="5.33621">
        <ele>530</ele>
        <time>2021-01-11T16:23:51Z</time>
      </trkpt>
      <trkpt lat="45.30044" lon="5.33649">
        <ele>524</ele>
        <time>2021-01-11T16:23:57Z</time>
      </trkpt>
      <trkpt lat="45.30055" lon="5.33664">
        <ele>521</ele>
        <time>2021-01-11T16:24:00Z</time>
      </trkpt>
      <trkpt lat="45.3007" lon="5.33668">
        <ele>520</ele>
        <time>2021-01-11T16:24:04Z</time>
      </trkpt>
      <trkpt lat="45.30107" lon="5.33669">
        <ele>521</ele>
        <time>2021-01-11T16:24:13Z</time>
      </trkpt>
      <trkpt lat="45.30176" lon="5.33699">
        <ele>514</ele>
        <time>2021-01-11T16:24:30Z</time>
      </trkpt>
      <trkpt lat="45.30284" lon="5.33761">
        <ele>509</ele>
        <time>2021-01-11T16:24:57Z</time>
      </trkpt>
      <trkpt lat="45.30349" lon="5.33787">
        <ele>512</ele>
        <time>2021-01-11T16:25:12Z</time>
      </trkpt>
      <trkpt lat="45.30444" lon="5.33865">
        <ele>499</ele>
        <time>2021-01-11T16:25:38Z</time>
      </trkpt>
      <trkpt lat="45.30475" lon="5.33938">
        <ele>482</ele>
        <time>2021-01-11T16:25:52Z</time>
      </trkpt>
      <trkpt lat="45.30492" lon="5.33986">
        <ele>476</ele>
        <time>2021-01-11T16:26:01Z</time>
      </trkpt>
      <trkpt lat="45.30522" lon="5.33969">
        <ele>477</ele>
        <time>2021-01-11T16:26:08Z</time>
      </trkpt>
      <trkpt lat="45.3054" lon="5.33952">
        <ele>478</ele>
        <time>2021-01-11T16:26:14Z</time>
      </trkpt>
      <trkpt lat="45.30554" lon="5.33983">
        <ele>474</ele>
        <time>2021-01-11T16:26:20Z</time>
      </trkpt>
      <trkpt lat="45.30558" lon="5.3402">
        <ele>474</ele>
        <time>2021-01-11T16:26:26Z</time>
      </trkpt>
      <trkpt lat="45.30554" lon="5.34035">
        <ele>474</ele>
        <time>2021-01-11T16:26:28Z</time>
      </trkpt>
      <trkpt lat="45.30552" lon="5.3408">
        <ele>476</ele>
        <time>2021-01-11T16:26:36Z</time>
      </trkpt>
      <trkpt lat="45.30542" lon="5.34116">
        <ele>478</ele>
        <time>2021-01-11T16:26:42Z</time>
      </trkpt>
      <trkpt lat="45.30505" lon="5.34206">
        <ele>483</ele>
        <time>2021-01-11T16:26:59Z</time>
      </trkpt>
      <trkpt lat="45.30489" lon="5.34258">
        <ele>485</ele>
        <time>2021-01-11T16:27:09Z</time>
      </trkpt>
      <trkpt lat="45.30474" lon="5.34328">
        <ele>489</ele>
        <time>2021-01-11T16:27:21Z</time>
      </trkpt>
      <trkpt lat="45.30453" lon="5.34395">
        <ele>491</ele>
        <time>2021-01-11T16:27:33Z</time>
      </trkpt>
      <trkpt lat="45.30442" lon="5.34437">
        <ele>492</ele>
        <time>2021-01-11T16:27:40Z</time>
      </trkpt>
      <trkpt lat="45.30434" lon="5.34509">
        <ele>496</ele>
        <time>2021-01-11T16:27:52Z</time>
      </trkpt>
      <trkpt lat="45.30421" lon="5.34574">
        <ele>498</ele>
        <time>2021-01-11T16:28:03Z</time>
      </trkpt>
      <trkpt lat="45.30418" lon="5.34677">
        <ele>509</ele>
        <time>2021-01-11T16:28:20Z</time>
      </trkpt>
      <trkpt lat="45.30387" lon="5.34803">
        <ele>516</ele>
        <time>2021-01-11T16:28:42Z</time>
      </trkpt>
      <trkpt lat="45.30383" lon="5.34844">
        <ele>518</ele>
        <time>2021-01-11T16:28:49Z</time>
      </trkpt>
      <trkpt lat="45.30382" lon="5.34893">
        <ele>518</ele>
        <time>2021-01-11T16:28:57Z</time>
      </trkpt>
      <trkpt lat="45.30387" lon="5.34944">
        <ele>521</ele>
        <time>2021-01-11T16:29:05Z</time>
      </trkpt>
      <trkpt lat="45.30403" lon="5.34978">
        <ele>526</ele>
        <time>2021-01-11T16:29:12Z</time>
      </trkpt>
      <trkpt lat="45.30402" lon="5.35025">
        <ele>526</ele>
        <time>2021-01-11T16:29:20Z</time>
      </trkpt>
      <trkpt lat="45.30409" lon="5.35082">
        <ele>528</ele>
        <time>2021-01-11T16:29:29Z</time>
      </trkpt>
      <trkpt lat="45.30421" lon="5.35148">
        <ele>531</ele>
        <time>2021-01-11T16:29:40Z</time>
      </trkpt>
      <trkpt lat="45.30438" lon="5.35194">
        <ele>534</ele>
        <time>2021-01-11T16:29:49Z</time>
      </trkpt>
      <trkpt lat="45.3047" lon="5.35221">
        <ele>540</ele>
        <time>2021-01-11T16:29:58Z</time>
      </trkpt>
      <trkpt lat="45.30504" lon="5.35246">
        <ele>545</ele>
        <time>2021-01-11T16:30:07Z</time>
      </trkpt>
      <trkpt lat="45.3054" lon="5.35246">
        <ele>552</ele>
        <time>2021-01-11T16:30:15Z</time>
      </trkpt>
      <trkpt lat="45.30563" lon="5.35258">
        <ele>556</ele>
        <time>2021-01-11T16:30:21Z</time>
      </trkpt>
      <trkpt lat="45.30568" lon="5.35282">
        <ele>557</ele>
        <time>2021-01-11T16:30:25Z</time>
      </trkpt>
      <trkpt lat="45.30562" lon="5.35298">
        <ele>556</ele>
        <time>2021-01-11T16:30:28Z</time>
      </trkpt>
      <trkpt lat="45.30542" lon="5.35328">
        <ele>553</ele>
        <time>2021-01-11T16:30:35Z</time>
      </trkpt>
      <trkpt lat="45.30534" lon="5.3535">
        <ele>554</ele>
        <time>2021-01-11T16:30:39Z</time>
      </trkpt>
      <trkpt lat="45.30528" lon="5.35374">
        <ele>556</ele>
        <time>2021-01-11T16:30:43Z</time>
      </trkpt>
      <trkpt lat="45.30526" lon="5.35407">
        <ele>559</ele>
        <time>2021-01-11T16:30:48Z</time>
      </trkpt>
      <trkpt lat="45.30524" lon="5.35419">
        <ele>560</ele>
        <time>2021-01-11T16:30:50Z</time>
      </trkpt>
      <trkpt lat="45.30541" lon="5.35404">
        <ele>561</ele>
        <time>2021-01-11T16:30:55Z</time>
      </trkpt>
      <trkpt lat="45.30584" lon="5.35356">
        <ele>563</ele>
        <time>2021-01-11T16:31:08Z</time>
      </trkpt>
      <trkpt lat="45.30616" lon="5.35324">
        <ele>566</ele>
        <time>2021-01-11T16:31:17Z</time>
      </trkpt>
      <trkpt lat="45.30644" lon="5.35285">
        <ele>570</ele>
        <time>2021-01-11T16:31:26Z</time>
      </trkpt>
      <trkpt lat="45.30672" lon="5.35259">
        <ele>574</ele>
        <time>2021-01-11T16:31:34Z</time>
      </trkpt>
      <trkpt lat="45.30696" lon="5.35241">
        <ele>576</ele>
        <time>2021-01-11T16:31:40Z</time>
      </trkpt>
      <trkpt lat="45.30712" lon="5.35222">
        <ele>577</ele>
        <time>2021-01-11T16:31:45Z</time>
      </trkpt>
      <trkpt lat="45.30734" lon="5.35187">
        <ele>579</ele>
        <time>2021-01-11T16:31:53Z</time>
      </trkpt>
      <trkpt lat="45.30747" lon="5.35193">
        <ele>580</ele>
        <time>2021-01-11T16:31:56Z</time>
      </trkpt>
      <trkpt lat="45.30772" lon="5.35192">
        <ele>583</ele>
        <time>2021-01-11T16:32:02Z</time>
      </trkpt>
      <trkpt lat="45.30795" lon="5.35187">
        <ele>585</ele>
        <time>2021-01-11T16:32:07Z</time>
      </trkpt>
      <trkpt lat="45.30824" lon="5.35169">
        <ele>587</ele>
        <time>2021-01-11T16:32:15Z</time>
      </trkpt>
      <trkpt lat="45.30864" lon="5.35139">
        <ele>586</ele>
        <time>2021-01-11T16:32:25Z</time>
      </trkpt>
      <trkpt lat="45.30917" lon="5.35127">
        <ele>585</ele>
        <time>2021-01-11T16:32:38Z</time>
      </trkpt>
      <trkpt lat="45.30961" lon="5.35139">
        <ele>578</ele>
        <time>2021-01-11T16:32:48Z</time>
      </trkpt>
      <trkpt lat="45.30981" lon="5.35154">
        <ele>576</ele>
        <time>2021-01-11T16:32:53Z</time>
      </trkpt>
      <trkpt lat="45.30998" lon="5.35201">
        <ele>575</ele>
        <time>2021-01-11T16:33:02Z</time>
      </trkpt>
      <trkpt lat="45.31026" lon="5.35328">
        <ele>569</ele>
        <time>2021-01-11T16:33:24Z</time>
      </trkpt>
      <trkpt lat="45.31042" lon="5.35375">
        <ele>565</ele>
        <time>2021-01-11T16:33:33Z</time>
      </trkpt>
      <trkpt lat="45.31115" lon="5.35494">
        <ele>549</ele>
        <time>2021-01-11T16:33:58Z</time>
      </trkpt>
      <trkpt lat="45.31148" lon="5.35527">
        <ele>544</ele>
        <time>2021-01-11T16:34:08Z</time>
      </trkpt>
      <trkpt lat="45.31201" lon="5.35545">
        <ele>538</ele>
        <time>2021-01-11T16:34:21Z</time>
      </trkpt>
      <trkpt lat="45.31279" lon="5.35556">
        <ele>532</ele>
        <time>2021-01-11T16:34:39Z</time>
      </trkpt>
      <trkpt lat="45.31284" lon="5.3555">
        <ele>532</ele>
        <time>2021-01-11T16:34:40Z</time>
      </trkpt>
      <trkpt lat="45.31305" lon="5.35668">
        <ele>535</ele>
        <time>2021-01-11T16:35:00Z</time>
      </trkpt>
      <trkpt lat="45.31315" lon="5.35749">
        <ele>534</ele>
        <time>2021-01-11T16:35:14Z</time>
      </trkpt>
      <trkpt lat="45.31333" lon="5.35828">
        <ele>535</ele>
        <time>2021-01-11T16:35:28Z</time>
      </trkpt>
      <trkpt lat="45.3134" lon="5.35886">
        <ele>535</ele>
        <time>2021-01-11T16:35:37Z</time>
      </trkpt>
      <trkpt lat="45.31333" lon="5.35923">
        <ele>535</ele>
        <time>2021-01-11T16:35:44Z</time>
      </trkpt>
      <trkpt lat="45.31284" lon="5.35939">
        <ele>542</ele>
        <time>2021-01-11T16:35:55Z</time>
      </trkpt>
      <trkpt lat="45.31276" lon="5.35945">
        <ele>543</ele>
        <time>2021-01-11T16:35:57Z</time>
      </trkpt>
      <trkpt lat="45.31269" lon="5.35958">
        <ele>544</ele>
        <time>2021-01-11T16:36:00Z</time>
      </trkpt>
      <trkpt lat="45.31267" lon="5.35969">
        <ele>545</ele>
        <time>2021-01-11T16:36:02Z</time>
      </trkpt>
      <trkpt lat="45.31263" lon="5.36032">
        <ele>548</ele>
        <time>2021-01-11T16:36:12Z</time>
      </trkpt>
      <trkpt lat="45.31258" lon="5.36057">
        <ele>550</ele>
        <time>2021-01-11T16:36:17Z</time>
      </trkpt>
      <trkpt lat="45.31257" lon="5.36072">
        <ele>550</ele>
        <time>2021-01-11T16:36:19Z</time>
      </trkpt>
      <trkpt lat="45.31262" lon="5.36123">
        <ele>551</ele>
        <time>2021-01-11T16:36:28Z</time>
      </trkpt>
      <trkpt lat="45.31264" lon="5.36131">
        <ele>551</ele>
        <time>2021-01-11T16:36:29Z</time>
      </trkpt>
      <trkpt lat="45.31293" lon="5.36194">
        <ele>548</ele>
        <time>2021-01-11T16:36:41Z</time>
      </trkpt>
      <trkpt lat="45.31303" lon="5.36229">
        <ele>547</ele>
        <time>2021-01-11T16:36:47Z</time>
      </trkpt>
      <trkpt lat="45.31313" lon="5.36283">
        <ele>547</ele>
        <time>2021-01-11T16:36:57Z</time>
      </trkpt>
      <trkpt lat="45.31314" lon="5.36295">
        <ele>547</ele>
        <time>2021-01-11T16:36:59Z</time>
      </trkpt>
      <trkpt lat="45.31299" lon="5.36362">
        <ele>549</ele>
        <time>2021-01-11T16:37:10Z</time>
      </trkpt>
      <trkpt lat="45.31305" lon="5.36407">
        <ele>549</ele>
        <time>2021-01-11T16:37:18Z</time>
      </trkpt>
      <trkpt lat="45.31302" lon="5.36434">
        <ele>550</ele>
        <time>2021-01-11T16:37:22Z</time>
      </trkpt>
      <trkpt lat="45.31293" lon="5.36488">
        <ele>553</ele>
        <time>2021-01-11T16:37:31Z</time>
      </trkpt>
      <trkpt lat="45.31297" lon="5.36536">
        <ele>553</ele>
        <time>2021-01-11T16:37:39Z</time>
      </trkpt>
      <trkpt lat="45.31291" lon="5.36711">
        <ele>558</ele>
        <time>2021-01-11T16:38:08Z</time>
      </trkpt>
      <trkpt lat="45.31266" lon="5.36766">
        <ele>562</ele>
        <time>2021-01-11T16:38:19Z</time>
      </trkpt>
      <trkpt lat="45.31244" lon="5.36823">
        <ele>563</ele>
        <time>2021-01-11T16:38:29Z</time>
      </trkpt>
      <trkpt lat="45.31204" lon="5.3694">
        <ele>567</ele>
        <time>2021-01-11T16:38:51Z</time>
      </trkpt>
      <trkpt lat="45.31198" lon="5.36946">
        <ele>568</ele>
        <time>2021-01-11T16:38:53Z</time>
      </trkpt>
      <trkpt lat="45.31148" lon="5.37028">
        <ele>574</ele>
        <time>2021-01-11T16:39:10Z</time>
      </trkpt>
      <trkpt lat="45.31098" lon="5.37117">
        <ele>574</ele>
        <time>2021-01-11T16:39:29Z</time>
      </trkpt>
      <trkpt lat="45.31079" lon="5.37135">
        <ele>575</ele>
        <time>2021-01-11T16:39:34Z</time>
      </trkpt>
      <trkpt lat="45.31046" lon="5.37144">
        <ele>576</ele>
        <time>2021-01-11T16:39:42Z</time>
      </trkpt>
      <trkpt lat="45.30972" lon="5.37143">
        <ele>580</ele>
        <time>2021-01-11T16:40:00Z</time>
      </trkpt>
      <trkpt lat="45.30889" lon="5.37116">
        <ele>583</ele>
        <time>2021-01-11T16:40:19Z</time>
      </trkpt>
      <trkpt lat="45.30865" lon="5.37097">
        <ele>585</ele>
        <time>2021-01-11T16:40:26Z</time>
      </trkpt>
      <trkpt lat="45.30845" lon="5.37075">
        <ele>587</ele>
        <time>2021-01-11T16:40:32Z</time>
      </trkpt>
      <trkpt lat="45.3083" lon="5.37051">
        <ele>588</ele>
        <time>2021-01-11T16:40:37Z</time>
      </trkpt>
      <trkpt lat="45.30801" lon="5.37056">
        <ele>591</ele>
        <time>2021-01-11T16:40:44Z</time>
      </trkpt>
      <trkpt lat="45.30791" lon="5.37065">
        <ele>591</ele>
        <time>2021-01-11T16:40:47Z</time>
      </trkpt>
      <trkpt lat="45.30785" lon="5.37074">
        <ele>592</ele>
        <time>2021-01-11T16:40:49Z</time>
      </trkpt>
      <trkpt lat="45.30772" lon="5.3708">
        <ele>593</ele>
        <time>2021-01-11T16:40:52Z</time>
      </trkpt>
      <trkpt lat="45.30764" lon="5.37088">
        <ele>594</ele>
        <time>2021-01-11T16:40:54Z</time>
      </trkpt>
      <trkpt lat="45.30759" lon="5.371">
        <ele>595</ele>
        <time>2021-01-11T16:40:56Z</time>
      </trkpt>
      <trkpt lat="45.30731" lon="5.37146">
        <ele>600</ele>
        <time>2021-01-11T16:41:06Z</time>
      </trkpt>
      <trkpt lat="45.30718" lon="5.37179">
        <ele>603</ele>
        <time>2021-01-11T16:41:13Z</time>
      </trkpt>
      <trkpt lat="45.307" lon="5.37243">
        <ele>608</ele>
        <time>2021-01-11T16:41:24Z</time>
      </trkpt>
      <trkpt lat="45.30693" lon="5.37253">
        <ele>609</ele>
        <time>2021-01-11T16:41:26Z</time>
      </trkpt>
      <trkpt lat="45.30683" lon="5.37263">
        <ele>610</ele>
        <time>2021-01-11T16:41:29Z</time>
      </trkpt>
      <trkpt lat="45.30617" lon="5.37305">
        <ele>620</ele>
        <time>2021-01-11T16:41:46Z</time>
      </trkpt>
      <trkpt lat="45.30562" lon="5.37337">
        <ele>628</ele>
        <time>2021-01-11T16:42:00Z</time>
      </trkpt>
      <trkpt lat="45.30545" lon="5.37344">
        <ele>631</ele>
        <time>2021-01-11T16:42:04Z</time>
      </trkpt>
      <trkpt lat="45.30512" lon="5.37352">
        <ele>638</ele>
        <time>2021-01-11T16:42:12Z</time>
      </trkpt>
      <trkpt lat="45.30499" lon="5.37361">
        <ele>640</ele>
        <time>2021-01-11T16:42:15Z</time>
      </trkpt>
      <trkpt lat="45.30474" lon="5.37401">
        <ele>641</ele>
        <time>2021-01-11T16:42:24Z</time>
      </trkpt>
      <trkpt lat="45.30453" lon="5.37449">
        <ele>644</ele>
        <time>2021-01-11T16:42:33Z</time>
      </trkpt>
      <trkpt lat="45.30443" lon="5.37461">
        <ele>646</ele>
        <time>2021-01-11T16:42:36Z</time>
      </trkpt>
      <trkpt lat="45.30414" lon="5.37478">
        <ele>652</ele>
        <time>2021-01-11T16:42:44Z</time>
      </trkpt>
      <trkpt lat="45.30397" lon="5.37483">
        <ele>653</ele>
        <time>2021-01-11T16:42:48Z</time>
      </trkpt>
      <trkpt lat="45.30301" lon="5.37527">
        <ele>660</ele>
        <time>2021-01-11T16:43:11Z</time>
      </trkpt>
      <trkpt lat="45.30287" lon="5.37543">
        <ele>662</ele>
        <time>2021-01-11T16:43:15Z</time>
      </trkpt>
      <trkpt lat="45.30265" lon="5.37575">
        <ele>665</ele>
        <time>2021-01-11T16:43:23Z</time>
      </trkpt>
      <trkpt lat="45.30239" lon="5.37629">
        <ele>673</ele>
        <time>2021-01-11T16:43:34Z</time>
      </trkpt>
      <trkpt lat="45.30229" lon="5.37648">
        <ele>676</ele>
        <time>2021-01-11T16:43:37Z</time>
      </trkpt>
      <trkpt lat="45.30195" lon="5.37688">
        <ele>680</ele>
        <time>2021-01-11T16:43:48Z</time>
      </trkpt>
      <trkpt lat="45.30178" lon="5.37703">
        <ele>682</ele>
        <time>2021-01-11T16:43:52Z</time>
      </trkpt>
      <trkpt lat="45.30162" lon="5.37712">
        <ele>683</ele>
        <time>2021-01-11T16:43:56Z</time>
      </trkpt>
      <trkpt lat="45.30117" lon="5.37733">
        <ele>684</ele>
        <time>2021-01-11T16:44:07Z</time>
      </trkpt>
      <trkpt lat="45.30069" lon="5.37752">
        <ele>686</ele>
        <time>2021-01-11T16:44:19Z</time>
      </trkpt>
      <trkpt lat="45.30045" lon="5.37754">
        <ele>687</ele>
        <time>2021-01-11T16:44:25Z</time>
      </trkpt>
      <trkpt lat="45.30008" lon="5.37742">
        <ele>689</ele>
        <time>2021-01-11T16:44:34Z</time>
      </trkpt>
      <trkpt lat="45.29956" lon="5.37728">
        <ele>694</ele>
        <time>2021-01-11T16:44:46Z</time>
      </trkpt>
      <trkpt lat="45.29939" lon="5.37727">
        <ele>696</ele>
        <time>2021-01-11T16:44:50Z</time>
      </trkpt>
      <trkpt lat="45.29886" lon="5.37734">
        <ele>703</ele>
        <time>2021-01-11T16:45:02Z</time>
      </trkpt>
      <trkpt lat="45.29842" lon="5.37732">
        <ele>708</ele>
        <time>2021-01-11T16:45:13Z</time>
      </trkpt>
      <trkpt lat="45.29829" lon="5.37734">
        <ele>710</ele>
        <time>2021-01-11T16:45:16Z</time>
      </trkpt>
      <trkpt lat="45.29794" lon="5.37746">
        <ele>715</ele>
        <time>2021-01-11T16:45:24Z</time>
      </trkpt>
      <trkpt lat="45.29756" lon="5.3775">
        <ele>718</ele>
        <time>2021-01-11T16:45:33Z</time>
      </trkpt>
      <trkpt lat="45.29726" lon="5.37742">
        <ele>715</ele>
        <time>2021-01-11T16:45:40Z</time>
      </trkpt>
      <trkpt lat="45.29599" lon="5.37732">
        <ele>700</ele>
        <time>2021-01-11T16:46:10Z</time>
      </trkpt>
      <trkpt lat="45.2951" lon="5.37705">
        <ele>694</ele>
        <time>2021-01-11T16:46:31Z</time>
      </trkpt>
      <trkpt lat="45.29454" lon="5.37683">
        <ele>697</ele>
        <time>2021-01-11T16:46:45Z</time>
      </trkpt>
      <trkpt lat="45.29448" lon="5.37685">
        <ele>697</ele>
        <time>2021-01-11T16:46:46Z</time>
      </trkpt>
      <trkpt lat="45.29384" lon="5.3764">
        <ele>704</ele>
        <time>2021-01-11T16:47:03Z</time>
      </trkpt>
      <trkpt lat="45.29329" lon="5.37607">
        <ele>710</ele>
        <time>2021-01-11T16:47:17Z</time>
      </trkpt>
      <trkpt lat="45.29278" lon="5.37564">
        <ele>718</ele>
        <time>2021-01-11T16:47:31Z</time>
      </trkpt>
      <trkpt lat="45.2924" lon="5.37544">
        <ele>725</ele>
        <time>2021-01-11T16:47:40Z</time>
      </trkpt>
      <trkpt lat="45.29185" lon="5.37503">
        <ele>735</ele>
        <time>2021-01-11T16:47:55Z</time>
      </trkpt>
      <trkpt lat="45.29162" lon="5.37493">
        <ele>737</ele>
        <time>2021-01-11T16:48:00Z</time>
      </trkpt>
      <trkpt lat="45.29126" lon="5.37485">
        <ele>737</ele>
        <time>2021-01-11T16:48:09Z</time>
      </trkpt>
      <trkpt lat="45.29108" lon="5.37486">
        <ele>738</ele>
        <time>2021-01-11T16:48:13Z</time>
      </trkpt>
      <trkpt lat="45.29076" lon="5.37503">
        <ele>742</ele>
        <time>2021-01-11T16:48:21Z</time>
      </trkpt>
      <trkpt lat="45.29062" lon="5.37534">
        <ele>740</ele>
        <time>2021-01-11T16:48:27Z</time>
      </trkpt>
      <trkpt lat="45.2905" lon="5.37552">
        <ele>739</ele>
        <time>2021-01-11T16:48:31Z</time>
      </trkpt>
      <trkpt lat="45.29035" lon="5.37565">
        <ele>739</ele>
        <time>2021-01-11T16:48:35Z</time>
      </trkpt>
      <trkpt lat="45.2902" lon="5.37573">
        <ele>740</ele>
        <time>2021-01-11T16:48:39Z</time>
      </trkpt>
      <trkpt lat="45.28977" lon="5.3759">
        <ele>740</ele>
        <time>2021-01-11T16:48:49Z</time>
      </trkpt>
      <trkpt lat="45.28946" lon="5.37606">
        <ele>739</ele>
        <time>2021-01-11T16:48:57Z</time>
      </trkpt>
      <trkpt lat="45.28926" lon="5.37623">
        <ele>738</ele>
        <time>2021-01-11T16:49:02Z</time>
      </trkpt>
      <trkpt lat="45.28915" lon="5.37638">
        <ele>738</ele>
        <time>2021-01-11T16:49:06Z</time>
      </trkpt>
      <trkpt lat="45.28906" lon="5.37662">
        <ele>737</ele>
        <time>2021-01-11T16:49:10Z</time>
      </trkpt>
      <trkpt lat="45.28899" lon="5.37695">
        <ele>735</ele>
        <time>2021-01-11T16:49:16Z</time>
      </trkpt>
      <trkpt lat="45.28896" lon="5.37733">
        <ele>734</ele>
        <time>2021-01-11T16:49:22Z</time>
      </trkpt>
      <trkpt lat="45.28892" lon="5.3776">
        <ele>733</ele>
        <time>2021-01-11T16:49:27Z</time>
      </trkpt>
      <trkpt lat="45.28876" lon="5.37829">
        <ele>730</ele>
        <time>2021-01-11T16:49:39Z</time>
      </trkpt>
      <trkpt lat="45.28861" lon="5.37873">
        <ele>726</ele>
        <time>2021-01-11T16:49:47Z</time>
      </trkpt>
      <trkpt lat="45.28851" lon="5.37895">
        <ele>724</ele>
        <time>2021-01-11T16:49:51Z</time>
      </trkpt>
      <trkpt lat="45.28832" lon="5.37913">
        <ele>722</ele>
        <time>2021-01-11T16:49:56Z</time>
      </trkpt>
      <trkpt lat="45.28822" lon="5.37932">
        <ele>719</ele>
        <time>2021-01-11T16:50:00Z</time>
      </trkpt>
      <trkpt lat="45.28818" lon="5.3797">
        <ele>716</ele>
        <time>2021-01-11T16:50:07Z</time>
      </trkpt>
      <trkpt lat="45.28811" lon="5.38011">
        <ele>713</ele>
        <time>2021-01-11T16:50:14Z</time>
      </trkpt>
      <trkpt lat="45.28803" lon="5.38046">
        <ele>713</ele>
        <time>2021-01-11T16:50:20Z</time>
      </trkpt>
      <trkpt lat="45.28784" lon="5.38111">
        <ele>712</ele>
        <time>2021-01-11T16:50:31Z</time>
      </trkpt>
      <trkpt lat="45.2877" lon="5.38166">
        <ele>711</ele>
        <time>2021-01-11T16:50:41Z</time>
      </trkpt>
      <trkpt lat="45.28768" lon="5.38184">
        <ele>710</ele>
        <time>2021-01-11T16:50:44Z</time>
      </trkpt>
      <trkpt lat="45.2877" lon="5.3821">
        <ele>710</ele>
        <time>2021-01-11T16:50:48Z</time>
      </trkpt>
      <trkpt lat="45.28781" lon="5.38255">
        <ele>708</ele>
        <time>2021-01-11T16:50:56Z</time>
      </trkpt>
      <trkpt lat="45.28814" lon="5.38354">
        <ele>702</ele>
        <time>2021-01-11T16:51:14Z</time>
      </trkpt>
      <trkpt lat="45.28835" lon="5.38435">
        <ele>699</ele>
        <time>2021-01-11T16:51:28Z</time>
      </trkpt>
      <trkpt lat="45.28839" lon="5.38463">
        <ele>698</ele>
        <time>2021-01-11T16:51:33Z</time>
      </trkpt>
      <trkpt lat="45.28841" lon="5.38529">
        <ele>695</ele>
        <time>2021-01-11T16:51:44Z</time>
      </trkpt>
      <trkpt lat="45.28847" lon="5.38561">
        <ele>694</ele>
        <time>2021-01-11T16:51:49Z</time>
      </trkpt>
      <trkpt lat="45.28863" lon="5.38604">
        <ele>691</ele>
        <time>2021-01-11T16:51:57Z</time>
      </trkpt>
      <trkpt lat="45.28876" lon="5.38657">
        <ele>689</ele>
        <time>2021-01-11T16:52:06Z</time>
      </trkpt>
      <trkpt lat="45.28914" lon="5.38787">
        <ele>682</ele>
        <time>2021-01-11T16:52:29Z</time>
      </trkpt>
      <trkpt lat="45.28919" lon="5.38826">
        <ele>678</ele>
        <time>2021-01-11T16:52:36Z</time>
      </trkpt>
      <trkpt lat="45.28927" lon="5.38985">
        <ele>667</ele>
        <time>2021-01-11T16:53:02Z</time>
      </trkpt>
      <trkpt lat="45.28928" lon="5.39042">
        <ele>664</ele>
        <time>2021-01-11T16:53:12Z</time>
      </trkpt>
      <trkpt lat="45.2893" lon="5.3906">
        <ele>663</ele>
        <time>2021-01-11T16:53:15Z</time>
      </trkpt>
      <trkpt lat="45.28934" lon="5.39085">
        <ele>661</ele>
        <time>2021-01-11T16:53:19Z</time>
      </trkpt>
      <trkpt lat="45.28951" lon="5.39156">
        <ele>657</ele>
        <time>2021-01-11T16:53:31Z</time>
      </trkpt>
      <trkpt lat="45.28969" lon="5.39221">
        <ele>655</ele>
        <time>2021-01-11T16:53:43Z</time>
      </trkpt>
      <trkpt lat="45.28972" lon="5.39264">
        <ele>654</ele>
        <time>2021-01-11T16:53:50Z</time>
      </trkpt>
      <trkpt lat="45.28985" lon="5.39344">
        <ele>656</ele>
        <time>2021-01-11T16:54:03Z</time>
      </trkpt>
      <trkpt lat="45.29019" lon="5.39318">
        <ele>655</ele>
        <time>2021-01-11T16:54:12Z</time>
      </trkpt>
      <trkpt lat="45.29035" lon="5.39304">
        <ele>653</ele>
        <time>2021-01-11T16:54:17Z</time>
      </trkpt>
      <trkpt lat="45.29058" lon="5.39274">
        <ele>649</ele>
        <time>2021-01-11T16:54:24Z</time>
      </trkpt>
      <trkpt lat="45.29077" lon="5.39246">
        <ele>645</ele>
        <time>2021-01-11T16:54:30Z</time>
      </trkpt>
      <trkpt lat="45.29087" lon="5.39227">
        <ele>642</ele>
        <time>2021-01-11T16:54:34Z</time>
      </trkpt>
      <trkpt lat="45.29095" lon="5.39201">
        <ele>639</ele>
        <time>2021-01-11T16:54:39Z</time>
      </trkpt>
      <trkpt lat="45.29104" lon="5.39154">
        <ele>636</ele>
        <time>2021-01-11T16:54:47Z</time>
      </trkpt>
      <trkpt lat="45.29114" lon="5.39134">
        <ele>633</ele>
        <time>2021-01-11T16:54:51Z</time>
      </trkpt>
      <trkpt lat="45.29121" lon="5.39127">
        <ele>632</ele>
        <time>2021-01-11T16:54:53Z</time>
      </trkpt>
      <trkpt lat="45.29128" lon="5.39127">
        <ele>630</ele>
        <time>2021-01-11T16:54:54Z</time>
      </trkpt>
      <trkpt lat="45.29177" lon="5.39149">
        <ele>622</ele>
        <time>2021-01-11T16:55:06Z</time>
      </trkpt>
      <trkpt lat="45.292" lon="5.39184">
        <ele>618</ele>
        <time>2021-01-11T16:55:14Z</time>
      </trkpt>
      <trkpt lat="45.29234" lon="5.3925">
        <ele>608</ele>
        <time>2021-01-11T16:55:28Z</time>
      </trkpt>
      <trkpt lat="45.29281" lon="5.39309">
        <ele>600</ele>
        <time>2021-01-11T16:55:42Z</time>
      </trkpt>
      <trkpt lat="45.29307" lon="5.39349">
        <ele>597</ele>
        <time>2021-01-11T16:55:51Z</time>
      </trkpt>
      <trkpt lat="45.2932" lon="5.39374">
        <ele>596</ele>
        <time>2021-01-11T16:55:56Z</time>
      </trkpt>
      <trkpt lat="45.29324" lon="5.39389">
        <ele>595</ele>
        <time>2021-01-11T16:55:59Z</time>
      </trkpt>
      <trkpt lat="45.29346" lon="5.39438">
        <ele>594</ele>
        <time>2021-01-11T16:56:09Z</time>
      </trkpt>
      <trkpt lat="45.29357" lon="5.3946">
        <ele>593</ele>
        <time>2021-01-11T16:56:13Z</time>
      </trkpt>
      <trkpt lat="45.29365" lon="5.39469">
        <ele>592</ele>
        <time>2021-01-11T16:56:15Z</time>
      </trkpt>
      <trkpt lat="45.29382" lon="5.39478">
        <ele>590</ele>
        <time>2021-01-11T16:56:20Z</time>
      </trkpt>
      <trkpt lat="45.2941" lon="5.39481">
        <ele>585</ele>
        <time>2021-01-11T16:56:26Z</time>
      </trkpt>
      <trkpt lat="45.29442" lon="5.39488">
        <ele>585</ele>
        <time>2021-01-11T16:56:34Z</time>
      </trkpt>
      <trkpt lat="45.29483" lon="5.39507">
        <ele>584</ele>
        <time>2021-01-11T16:56:44Z</time>
      </trkpt>
      <trkpt lat="45.29517" lon="5.39537">
        <ele>583</ele>
        <time>2021-01-11T16:56:53Z</time>
      </trkpt>
      <trkpt lat="45.29587" lon="5.39604">
        <ele>582</ele>
        <time>2021-01-11T16:57:13Z</time>
      </trkpt>
      <trkpt lat="45.29609" lon="5.39631">
        <ele>581</ele>
        <time>2021-01-11T16:57:20Z</time>
      </trkpt>
      <trkpt lat="45.29602" lon="5.39644">
        <ele>579</ele>
        <time>2021-01-11T16:57:22Z</time>
      </trkpt>
      <trkpt lat="45.29591" lon="5.39654">
        <ele>578</ele>
        <time>2021-01-11T16:57:25Z</time>
      </trkpt>
      <trkpt lat="45.29584" lon="5.39672">
        <ele>576</ele>
        <time>2021-01-11T16:57:29Z</time>
      </trkpt>
      <trkpt lat="45.29584" lon="5.39689">
        <ele>574</ele>
        <time>2021-01-11T16:57:32Z</time>
      </trkpt>
      <trkpt lat="45.29597" lon="5.3971">
        <ele>572</ele>
        <time>2021-01-11T16:57:36Z</time>
      </trkpt>
      <trkpt lat="45.296" lon="5.3972">
        <ele>571</ele>
        <time>2021-01-11T16:57:38Z</time>
      </trkpt>
      <trkpt lat="45.2956" lon="5.39721">
        <ele>570</ele>
        <time>2021-01-11T16:57:47Z</time>
      </trkpt>
      <trkpt lat="45.29516" lon="5.39708">
        <ele>569</ele>
        <time>2021-01-11T16:57:58Z</time>
      </trkpt>
      <trkpt lat="45.29502" lon="5.39706">
        <ele>568</ele>
        <time>2021-01-11T16:58:01Z</time>
      </trkpt>
      <trkpt lat="45.29491" lon="5.39708">
        <ele>570</ele>
        <time>2021-01-11T16:58:04Z</time>
      </trkpt>
      <trkpt lat="45.29482" lon="5.39713">
        <ele>572</ele>
        <time>2021-01-11T16:58:06Z</time>
      </trkpt>
      <trkpt lat="45.29475" lon="5.39725">
        <ele>574</ele>
        <time>2021-01-11T16:58:09Z</time>
      </trkpt>
      <trkpt lat="45.29473" lon="5.39741">
        <ele>575</ele>
        <time>2021-01-11T16:58:11Z</time>
      </trkpt>
      <trkpt lat="45.29477" lon="5.39756">
        <ele>575</ele>
        <time>2021-01-11T16:58:14Z</time>
      </trkpt>
      <trkpt lat="45.29496" lon="5.39788">
        <ele>574</ele>
        <time>2021-01-11T16:58:21Z</time>
      </trkpt>
      <trkpt lat="45.29545" lon="5.39857">
        <ele>572</ele>
        <time>2021-01-11T16:58:37Z</time>
      </trkpt>
      <trkpt lat="45.29589" lon="5.39901">
        <ele>566</ele>
        <time>2021-01-11T16:58:49Z</time>
      </trkpt>
      <trkpt lat="45.29619" lon="5.39907">
        <ele>562</ele>
        <time>2021-01-11T16:58:56Z</time>
      </trkpt>
      <trkpt lat="45.2965" lon="5.39911">
        <ele>557</ele>
        <time>2021-01-11T16:59:04Z</time>
      </trkpt>
      <trkpt lat="45.29693" lon="5.39916">
        <ele>553</ele>
        <time>2021-01-11T16:59:14Z</time>
      </trkpt>
      <trkpt lat="45.29753" lon="5.39919">
        <ele>549</ele>
        <time>2021-01-11T16:59:28Z</time>
      </trkpt>
      <trkpt lat="45.29767" lon="5.39928">
        <ele>547</ele>
        <time>2021-01-11T16:59:31Z</time>
      </trkpt>
      <trkpt lat="45.29771" lon="5.39938">
        <ele>546</ele>
        <time>2021-01-11T16:59:33Z</time>
      </trkpt>
      <trkpt lat="45.29769" lon="5.3995">
        <ele>546</ele>
        <time>2021-01-11T16:59:35Z</time>
      </trkpt>
      <trkpt lat="45.2976" lon="5.39966">
        <ele>546</ele>
        <time>2021-01-11T16:59:39Z</time>
      </trkpt>
      <trkpt lat="45.2959" lon="5.4013">
        <ele>543</ele>
        <time>2021-01-11T17:00:27Z</time>
      </trkpt>
      <trkpt lat="45.29543" lon="5.40168">
        <ele>543</ele>
        <time>2021-01-11T17:00:39Z</time>
      </trkpt>
      <trkpt lat="45.29532" lon="5.40182">
        <ele>544</ele>
        <time>2021-01-11T17:00:43Z</time>
      </trkpt>
      <trkpt lat="45.29514" lon="5.4021">
        <ele>544</ele>
        <time>2021-01-11T17:00:49Z</time>
      </trkpt>
      <trkpt lat="45.29492" lon="5.40251">
        <ele>542</ele>
        <time>2021-01-11T17:00:57Z</time>
      </trkpt>
      <trkpt lat="45.29495" lon="5.40256">
        <ele>541</ele>
        <time>2021-01-11T17:00:59Z</time>
      </trkpt>
      <trkpt lat="45.29499" lon="5.40267">
        <ele>541</ele>
        <time>2021-01-11T17:01:01Z</time>
      </trkpt>
      <trkpt lat="45.29511" lon="5.40299">
        <ele>544</ele>
        <time>2021-01-11T17:01:07Z</time>
      </trkpt>
      <trkpt lat="45.29504" lon="5.40314">
        <ele>544</ele>
        <time>2021-01-11T17:01:10Z</time>
      </trkpt>
      <trkpt lat="45.29502" lon="5.4033">
        <ele>544</ele>
        <time>2021-01-11T17:01:12Z</time>
      </trkpt>
      <trkpt lat="45.29505" lon="5.40343">
        <ele>546</ele>
        <time>2021-01-11T17:01:14Z</time>
      </trkpt>
      <trkpt lat="45.29516" lon="5.40326">
        <ele>547</ele>
        <time>2021-01-11T17:01:18Z</time>
      </trkpt>
      <trkpt lat="45.29521" lon="5.4032">
        <ele>548</ele>
        <time>2021-01-11T17:01:20Z</time>
      </trkpt>
      <trkpt lat="45.29551" lon="5.40304">
        <ele>551</ele>
        <time>2021-01-11T17:01:27Z</time>
      </trkpt>
      <trkpt lat="45.29636" lon="5.40275">
        <ele>556</ele>
        <time>2021-01-11T17:01:48Z</time>
      </trkpt>
      <trkpt lat="45.29644" lon="5.40273">
        <ele>557</ele>
        <time>2021-01-11T17:01:50Z</time>
      </trkpt>
      <trkpt lat="45.29699" lon="5.40257">
        <ele>557</ele>
        <time>2021-01-11T17:02:03Z</time>
      </trkpt>
      <trkpt lat="45.29711" lon="5.40257">
        <ele>557</ele>
        <time>2021-01-11T17:02:05Z</time>
      </trkpt>
      <trkpt lat="45.2972" lon="5.4026">
        <ele>557</ele>
        <time>2021-01-11T17:02:08Z</time>
      </trkpt>
      <trkpt lat="45.29729" lon="5.40266">
        <ele>558</ele>
        <time>2021-01-11T17:02:10Z</time>
      </trkpt>
      <trkpt lat="45.29737" lon="5.40279">
        <ele>560</ele>
        <time>2021-01-11T17:02:13Z</time>
      </trkpt>
      <trkpt lat="45.29744" lon="5.40307">
        <ele>564</ele>
        <time>2021-01-11T17:02:18Z</time>
      </trkpt>
      <trkpt lat="45.29757" lon="5.40383">
        <ele>572</ele>
        <time>2021-01-11T17:02:31Z</time>
      </trkpt>
      <trkpt lat="45.29762" lon="5.404">
        <ele>572</ele>
        <time>2021-01-11T17:02:34Z</time>
      </trkpt>
      <trkpt lat="45.29778" lon="5.40452">
        <ele>573</ele>
        <time>2021-01-11T17:02:43Z</time>
      </trkpt>
      <trkpt lat="45.29788" lon="5.40479">
        <ele>574</ele>
        <time>2021-01-11T17:02:48Z</time>
      </trkpt>
      <trkpt lat="45.2979" lon="5.40603">
        <ele>592</ele>
        <time>2021-01-11T17:03:08Z</time>
      </trkpt>
      <trkpt lat="45.29789" lon="5.40613">
        <ele>593</ele>
        <time>2021-01-11T17:03:10Z</time>
      </trkpt>
      <trkpt lat="45.29786" lon="5.40618">
        <ele>593</ele>
        <time>2021-01-11T17:03:11Z</time>
      </trkpt>
      <trkpt lat="45.29782" lon="5.40654">
        <ele>597</ele>
        <time>2021-01-11T17:03:17Z</time>
      </trkpt>
      <trkpt lat="45.2975" lon="5.40635">
        <ele>599</ele>
        <time>2021-01-11T17:03:25Z</time>
      </trkpt>
      <trkpt lat="45.29737" lon="5.40632">
        <ele>598</ele>
        <time>2021-01-11T17:03:28Z</time>
      </trkpt>
      <trkpt lat="45.29693" lon="5.40628">
        <ele>597</ele>
        <time>2021-01-11T17:03:38Z</time>
      </trkpt>
      <trkpt lat="45.29686" lon="5.40635">
        <ele>597</ele>
        <time>2021-01-11T17:03:40Z</time>
      </trkpt>
      <trkpt lat="45.2969" lon="5.40682">
        <ele>600</ele>
        <time>2021-01-11T17:03:48Z</time>
      </trkpt>
      <trkpt lat="45.29689" lon="5.40709">
        <ele>602</ele>
        <time>2021-01-11T17:03:53Z</time>
      </trkpt>
      <trkpt lat="45.29683" lon="5.40737">
        <ele>603</ele>
        <time>2021-01-11T17:03:57Z</time>
      </trkpt>
      <trkpt lat="45.29667" lon="5.40859">
        <ele>611</ele>
        <time>2021-01-11T17:04:18Z</time>
      </trkpt>
      <trkpt lat="45.2967" lon="5.40863">
        <ele>612</ele>
        <time>2021-01-11T17:04:19Z</time>
      </trkpt>
      <trkpt lat="45.29675" lon="5.40861">
        <ele>613</ele>
        <time>2021-01-11T17:04:20Z</time>
      </trkpt>
      <trkpt lat="45.29695" lon="5.40834">
        <ele>614</ele>
        <time>2021-01-11T17:04:26Z</time>
      </trkpt>
      <trkpt lat="45.29705" lon="5.40827">
        <ele>616</ele>
        <time>2021-01-11T17:04:29Z</time>
      </trkpt>
      <trkpt lat="45.29713" lon="5.40823">
        <ele>617</ele>
        <time>2021-01-11T17:04:31Z</time>
      </trkpt>
      <trkpt lat="45.29719" lon="5.40823">
        <ele>618</ele>
        <time>2021-01-11T17:04:32Z</time>
      </trkpt>
      <trkpt lat="45.29728" lon="5.40829">
        <ele>620</ele>
        <time>2021-01-11T17:04:35Z</time>
      </trkpt>
      <trkpt lat="45.29736" lon="5.40837">
        <ele>623</ele>
        <time>2021-01-11T17:04:37Z</time>
      </trkpt>
      <trkpt lat="45.29741" lon="5.40849">
        <ele>625</ele>
        <time>2021-01-11T17:04:39Z</time>
      </trkpt>
      <trkpt lat="45.29759" lon="5.40824">
        <ele>622</ele>
        <time>2021-01-11T17:04:45Z</time>
      </trkpt>
      <trkpt lat="45.29768" lon="5.40798">
        <ele>616</ele>
        <time>2021-01-11T17:04:50Z</time>
      </trkpt>
      <trkpt lat="45.29773" lon="5.40746">
        <ele>608</ele>
        <time>2021-01-11T17:04:59Z</time>
      </trkpt>
      <trkpt lat="45.29779" lon="5.40716">
        <ele>604</ele>
        <time>2021-01-11T17:05:04Z</time>
      </trkpt>
      <trkpt lat="45.29785" lon="5.40697">
        <ele>601</ele>
        <time>2021-01-11T17:05:07Z</time>
      </trkpt>
      <trkpt lat="45.29787" lon="5.40681">
        <ele>600</ele>
        <time>2021-01-11T17:05:10Z</time>
      </trkpt>
      <trkpt lat="45.2979" lon="5.40658">
        <ele>597</ele>
        <time>2021-01-11T17:05:14Z</time>
      </trkpt>
      <trkpt lat="45.29782" lon="5.40654">
        <ele>597</ele>
        <time>2021-01-11T17:05:16Z</time>
      </trkpt>
      <trkpt lat="45.29786" lon="5.40618">
        <ele>593</ele>
        <time>2021-01-11T17:05:22Z</time>
      </trkpt>
      <trkpt lat="45.29789" lon="5.40613">
        <ele>593</ele>
        <time>2021-01-11T17:05:23Z</time>
      </trkpt>
      <trkpt lat="45.2979" lon="5.40603">
        <ele>592</ele>
        <time>2021-01-11T17:05:24Z</time>
      </trkpt>
      <trkpt lat="45.29788" lon="5.40479">
        <ele>574</ele>
        <time>2021-01-11T17:05:45Z</time>
      </trkpt>
      <trkpt lat="45.29778" lon="5.40452">
        <ele>573</ele>
        <time>2021-01-11T17:05:50Z</time>
      </trkpt>
      <trkpt lat="45.29774" lon="5.40381">
        <ele>567</ele>
        <time>2021-01-11T17:06:01Z</time>
      </trkpt>
      <trkpt lat="45.29768" lon="5.40308">
        <ele>561</ele>
        <time>2021-01-11T17:06:14Z</time>
      </trkpt>
      <trkpt lat="45.29764" lon="5.40183">
        <ele>543</ele>
        <time>2021-01-11T17:06:34Z</time>
      </trkpt>
      <trkpt lat="45.29758" lon="5.40154">
        <ele>539</ele>
        <time>2021-01-11T17:06:39Z</time>
      </trkpt>
      <trkpt lat="45.2975" lon="5.40152">
        <ele>538</ele>
        <time>2021-01-11T17:06:41Z</time>
      </trkpt>
      <trkpt lat="45.29751" lon="5.40147">
        <ele>538</ele>
        <time>2021-01-11T17:06:42Z</time>
      </trkpt>
      <trkpt lat="45.29749" lon="5.4014">
        <ele>537</ele>
        <time>2021-01-11T17:06:43Z</time>
      </trkpt>
      <trkpt lat="45.29753" lon="5.40137">
        <ele>538</ele>
        <time>2021-01-11T17:06:44Z</time>
      </trkpt>
      <trkpt lat="45.29762" lon="5.4013">
        <ele>538</ele>
        <time>2021-01-11T17:06:46Z</time>
      </trkpt>
      <trkpt lat="45.29768" lon="5.40126">
        <ele>539</ele>
        <time>2021-01-11T17:06:48Z</time>
      </trkpt>
      <trkpt lat="45.2978" lon="5.40128">
        <ele>540</ele>
        <time>2021-01-11T17:06:51Z</time>
      </trkpt>
      <trkpt lat="45.298" lon="5.40126">
        <ele>541</ele>
        <time>2021-01-11T17:06:56Z</time>
      </trkpt>
      <trkpt lat="45.29807" lon="5.40136">
        <ele>543</ele>
        <time>2021-01-11T17:06:58Z</time>
      </trkpt>
      <trkpt lat="45.29811" lon="5.40151">
        <ele>544</ele>
        <time>2021-01-11T17:07:00Z</time>
      </trkpt>
      <trkpt lat="45.29815" lon="5.40177">
        <ele>546</ele>
        <time>2021-01-11T17:07:05Z</time>
      </trkpt>
      <trkpt lat="45.29833" lon="5.40231">
        <ele>550</ele>
        <time>2021-01-11T17:07:15Z</time>
      </trkpt>
      <trkpt lat="45.29837" lon="5.40256">
        <ele>551</ele>
        <time>2021-01-11T17:07:19Z</time>
      </trkpt>
      <trkpt lat="45.29848" lon="5.4029">
        <ele>554</ele>
        <time>2021-01-11T17:07:25Z</time>
      </trkpt>
      <trkpt lat="45.29853" lon="5.40293">
        <ele>555</ele>
        <time>2021-01-11T17:07:26Z</time>
      </trkpt>
      <trkpt lat="45.2987" lon="5.40284">
        <ele>559</ele>
        <time>2021-01-11T17:07:31Z</time>
      </trkpt>
      <trkpt lat="45.2988" lon="5.40264">
        <ele>563</ele>
        <time>2021-01-11T17:07:35Z</time>
      </trkpt>
      <trkpt lat="45.29881" lon="5.40243">
        <ele>563</ele>
        <time>2021-01-11T17:07:38Z</time>
      </trkpt>
      <trkpt lat="45.29869" lon="5.40201">
        <ele>558</ele>
        <time>2021-01-11T17:07:45Z</time>
      </trkpt>
      <trkpt lat="45.29873" lon="5.40181">
        <ele>559</ele>
        <time>2021-01-11T17:07:49Z</time>
      </trkpt>
      <trkpt lat="45.29909" lon="5.40175">
        <ele>568</ele>
        <time>2021-01-11T17:07:57Z</time>
      </trkpt>
      <trkpt lat="45.29969" lon="5.40156">
        <ele>581</ele>
        <time>2021-01-11T17:08:12Z</time>
      </trkpt>
      <trkpt lat="45.30001" lon="5.40152">
        <ele>588</ele>
        <time>2021-01-11T17:08:19Z</time>
      </trkpt>
      <trkpt lat="45.30031" lon="5.40142">
        <ele>587</ele>
        <time>2021-01-11T17:08:26Z</time>
      </trkpt>
      <trkpt lat="45.30055" lon="5.40131">
        <ele>586</ele>
        <time>2021-01-11T17:08:32Z</time>
      </trkpt>
      <trkpt lat="45.30077" lon="5.40128">
        <ele>588</ele>
        <time>2021-01-11T17:08:37Z</time>
      </trkpt>
      <trkpt lat="45.30105" lon="5.40138">
        <ele>595</ele>
        <time>2021-01-11T17:08:44Z</time>
      </trkpt>
      <trkpt lat="45.30124" lon="5.40135">
        <ele>597</ele>
        <time>2021-01-11T17:08:49Z</time>
      </trkpt>
      <trkpt lat="45.30152" lon="5.40117">
        <ele>597</ele>
        <time>2021-01-11T17:08:56Z</time>
      </trkpt>
      <trkpt lat="45.30164" lon="5.401">
        <ele>595</ele>
        <time>2021-01-11T17:09:00Z</time>
      </trkpt>
      <trkpt lat="45.30183" lon="5.4006">
        <ele>589</ele>
        <time>2021-01-11T17:09:08Z</time>
      </trkpt>
      <trkpt lat="45.30195" lon="5.40067">
        <ele>590</ele>
        <time>2021-01-11T17:09:11Z</time>
      </trkpt>
      <trkpt lat="45.30203" lon="5.40065">
        <ele>589</ele>
        <time>2021-01-11T17:09:13Z</time>
      </trkpt>
      <trkpt lat="45.30213" lon="5.40074">
        <ele>591</ele>
        <time>2021-01-11T17:09:15Z</time>
      </trkpt>
      <trkpt lat="45.30219" lon="5.40095">
        <ele>595</ele>
        <time>2021-01-11T17:09:19Z</time>
      </trkpt>
      <trkpt lat="45.302" lon="5.40112">
        <ele>599</ele>
        <time>2021-01-11T17:09:24Z</time>
      </trkpt>
      <trkpt lat="45.30199" lon="5.40133">
        <ele>604</ele>
        <time>2021-01-11T17:09:28Z</time>
      </trkpt>
      <trkpt lat="45.30177" lon="5.40157">
        <ele>610</ele>
        <time>2021-01-11T17:09:34Z</time>
      </trkpt>
      <trkpt lat="45.30135" lon="5.40219">
        <ele>622</ele>
        <time>2021-01-11T17:09:48Z</time>
      </trkpt>
      <trkpt lat="45.30116" lon="5.40241">
        <ele>626</ele>
        <time>2021-01-11T17:09:54Z</time>
      </trkpt>
      <trkpt lat="45.3008" lon="5.40267">
        <ele>628</ele>
        <time>2021-01-11T17:10:04Z</time>
      </trkpt>
      <trkpt lat="45.30069" lon="5.40283">
        <ele>626</ele>
        <time>2021-01-11T17:10:07Z</time>
      </trkpt>
      <trkpt lat="45.30065" lon="5.4029">
        <ele>626</ele>
        <time>2021-01-11T17:10:09Z</time>
      </trkpt>
      <trkpt lat="45.30065" lon="5.403">
        <ele>627</ele>
        <time>2021-01-11T17:10:10Z</time>
      </trkpt>
      <trkpt lat="45.30067" lon="5.4031">
        <ele>629</ele>
        <time>2021-01-11T17:10:12Z</time>
      </trkpt>
      <trkpt lat="45.30077" lon="5.40324">
        <ele>634</ele>
        <time>2021-01-11T17:10:15Z</time>
      </trkpt>
      <trkpt lat="45.30092" lon="5.40329">
        <ele>639</ele>
        <time>2021-01-11T17:10:19Z</time>
      </trkpt>
      <trkpt lat="45.30138" lon="5.40341">
        <ele>648</ele>
        <time>2021-01-11T17:10:30Z</time>
      </trkpt>
      <trkpt lat="45.30146" lon="5.40345">
        <ele>650</ele>
        <time>2021-01-11T17:10:32Z</time>
      </trkpt>
      <trkpt lat="45.3015" lon="5.40352">
        <ele>652</ele>
        <time>2021-01-11T17:10:33Z</time>
      </trkpt>
      <trkpt lat="45.30151" lon="5.40368">
        <ele>654</ele>
        <time>2021-01-11T17:10:36Z</time>
      </trkpt>
      <trkpt lat="45.30155" lon="5.40381">
        <ele>657</ele>
        <time>2021-01-11T17:10:38Z</time>
      </trkpt>
      <trkpt lat="45.30154" lon="5.40399">
        <ele>659</ele>
        <time>2021-01-11T17:10:41Z</time>
      </trkpt>
      <trkpt lat="45.30157" lon="5.40423">
        <ele>663</ele>
        <time>2021-01-11T17:10:45Z</time>
      </trkpt>
      <trkpt lat="45.30164" lon="5.40445">
        <ele>665</ele>
        <time>2021-01-11T17:10:49Z</time>
      </trkpt>
      <trkpt lat="45.30196" lon="5.40511">
        <ele>678</ele>
        <time>2021-01-11T17:11:02Z</time>
      </trkpt>
      <trkpt lat="45.30202" lon="5.40515">
        <ele>681</ele>
        <time>2021-01-11T17:11:04Z</time>
      </trkpt>
      <trkpt lat="45.30231" lon="5.4051">
        <ele>692</ele>
        <time>2021-01-11T17:11:11Z</time>
      </trkpt>
      <trkpt lat="45.3025" lon="5.4051">
        <ele>699</ele>
        <time>2021-01-11T17:11:15Z</time>
      </trkpt>
      <trkpt lat="45.30278" lon="5.4052">
        <ele>702</ele>
        <time>2021-01-11T17:11:22Z</time>
      </trkpt>
      <trkpt lat="45.30294" lon="5.40528">
        <ele>705</ele>
        <time>2021-01-11T17:11:26Z</time>
      </trkpt>
      <trkpt lat="45.30309" lon="5.40543">
        <ele>710</ele>
        <time>2021-01-11T17:11:30Z</time>
      </trkpt>
      <trkpt lat="45.30323" lon="5.40567">
        <ele>717</ele>
        <time>2021-01-11T17:11:35Z</time>
      </trkpt>
      <trkpt lat="45.30337" lon="5.40593">
        <ele>723</ele>
        <time>2021-01-11T17:11:41Z</time>
      </trkpt>
      <trkpt lat="45.30351" lon="5.40607">
        <ele>725</ele>
        <time>2021-01-11T17:11:45Z</time>
      </trkpt>
      <trkpt lat="45.30454" lon="5.40643">
        <ele>738</ele>
        <time>2021-01-11T17:12:10Z</time>
      </trkpt>
      <trkpt lat="45.305" lon="5.40655">
        <ele>742</ele>
        <time>2021-01-11T17:12:20Z</time>
      </trkpt>
      <trkpt lat="45.30515" lon="5.40655">
        <ele>743</ele>
        <time>2021-01-11T17:12:24Z</time>
      </trkpt>
      <trkpt lat="45.30531" lon="5.40652">
        <ele>745</ele>
        <time>2021-01-11T17:12:28Z</time>
      </trkpt>
      <trkpt lat="45.30541" lon="5.40647">
        <ele>746</ele>
        <time>2021-01-11T17:12:30Z</time>
      </trkpt>
      <trkpt lat="45.30561" lon="5.4063">
        <ele>748</ele>
        <time>2021-01-11T17:12:36Z</time>
      </trkpt>
      <trkpt lat="45.30577" lon="5.40629">
        <ele>750</ele>
        <time>2021-01-11T17:12:39Z</time>
      </trkpt>
      <trkpt lat="45.30589" lon="5.40635">
        <ele>751</ele>
        <time>2021-01-11T17:12:42Z</time>
      </trkpt>
      <trkpt lat="45.30615" lon="5.40656">
        <ele>753</ele>
        <time>2021-01-11T17:12:49Z</time>
      </trkpt>
      <trkpt lat="45.30673" lon="5.40694">
        <ele>756</ele>
        <time>2021-01-11T17:13:04Z</time>
      </trkpt>
      <trkpt lat="45.3072" lon="5.40719">
        <ele>760</ele>
        <time>2021-01-11T17:13:16Z</time>
      </trkpt>
      <trkpt lat="45.30756" lon="5.40733">
        <ele>763</ele>
        <time>2021-01-11T17:13:25Z</time>
      </trkpt>
      <trkpt lat="45.30779" lon="5.40739">
        <ele>764</ele>
        <time>2021-01-11T17:13:30Z</time>
      </trkpt>
      <trkpt lat="45.308" lon="5.40741">
        <ele>765</ele>
        <time>2021-01-11T17:13:35Z</time>
      </trkpt>
      <trkpt lat="45.30833" lon="5.40739">
        <ele>766</ele>
        <time>2021-01-11T17:13:43Z</time>
      </trkpt>
      <trkpt lat="45.30863" lon="5.40744">
        <ele>770</ele>
        <time>2021-01-11T17:13:50Z</time>
      </trkpt>
      <trkpt lat="45.30881" lon="5.40747">
        <ele>773</ele>
        <time>2021-01-11T17:13:54Z</time>
      </trkpt>
      <trkpt lat="45.30984" lon="5.40712">
        <ele>769</ele>
        <time>2021-01-11T17:14:19Z</time>
      </trkpt>
      <trkpt lat="45.31005" lon="5.40699">
        <ele>766</ele>
        <time>2021-01-11T17:14:24Z</time>
      </trkpt>
      <trkpt lat="45.31021" lon="5.40676">
        <ele>762</ele>
        <time>2021-01-11T17:14:29Z</time>
      </trkpt>
      <trkpt lat="45.31032" lon="5.40642">
        <ele>756</ele>
        <time>2021-01-11T17:14:36Z</time>
      </trkpt>
      <trkpt lat="45.31054" lon="5.40542">
        <ele>743</ele>
        <time>2021-01-11T17:14:53Z</time>
      </trkpt>
      <trkpt lat="45.3106" lon="5.40491">
        <ele>740</ele>
        <time>2021-01-11T17:15:01Z</time>
      </trkpt>
      <trkpt lat="45.31057" lon="5.40398">
        <ele>734</ele>
        <time>2021-01-11T17:15:17Z</time>
      </trkpt>
      <trkpt lat="45.31055" lon="5.40381">
        <ele>733</ele>
        <time>2021-01-11T17:15:19Z</time>
      </trkpt>
      <trkpt lat="45.31046" lon="5.40358">
        <ele>730</ele>
        <time>2021-01-11T17:15:24Z</time>
      </trkpt>
      <trkpt lat="45.31032" lon="5.40267">
        <ele>720</ele>
        <time>2021-01-11T17:15:39Z</time>
      </trkpt>
      <trkpt lat="45.31034" lon="5.40245">
        <ele>718</ele>
        <time>2021-01-11T17:15:43Z</time>
      </trkpt>
      <trkpt lat="45.31031" lon="5.40206">
        <ele>711</ele>
        <time>2021-01-11T17:15:49Z</time>
      </trkpt>
      <trkpt lat="45.31031" lon="5.40183">
        <ele>706</ele>
        <time>2021-01-11T17:15:53Z</time>
      </trkpt>
      <trkpt lat="45.31034" lon="5.40168">
        <ele>704</ele>
        <time>2021-01-11T17:15:55Z</time>
      </trkpt>
      <trkpt lat="45.31051" lon="5.40118">
        <ele>697</ele>
        <time>2021-01-11T17:16:05Z</time>
      </trkpt>
      <trkpt lat="45.31071" lon="5.4001">
        <ele>687</ele>
        <time>2021-01-11T17:16:23Z</time>
      </trkpt>
      <trkpt lat="45.31093" lon="5.3993">
        <ele>677</ele>
        <time>2021-01-11T17:16:37Z</time>
      </trkpt>
      <trkpt lat="45.31112" lon="5.39869">
        <ele>669</ele>
        <time>2021-01-11T17:16:48Z</time>
      </trkpt>
      <trkpt lat="45.31131" lon="5.39834">
        <ele>664</ele>
        <time>2021-01-11T17:16:55Z</time>
      </trkpt>
      <trkpt lat="45.31221" lon="5.39703">
        <ele>642</ele>
        <time>2021-01-11T17:17:25Z</time>
      </trkpt>
      <trkpt lat="45.3129" lon="5.39573">
        <ele>619</ele>
        <time>2021-01-11T17:17:52Z</time>
      </trkpt>
      <trkpt lat="45.31336" lon="5.3949">
        <ele>608</ele>
        <time>2021-01-11T17:18:09Z</time>
      </trkpt>
      <trkpt lat="45.31384" lon="5.39412">
        <ele>601</ele>
        <time>2021-01-11T17:18:26Z</time>
      </trkpt>
      <trkpt lat="45.31398" lon="5.39396">
        <ele>600</ele>
        <time>2021-01-11T17:18:31Z</time>
      </trkpt>
      <trkpt lat="45.31409" lon="5.39376">
        <ele>600</ele>
        <time>2021-01-11T17:18:35Z</time>
      </trkpt>
      <trkpt lat="45.31421" lon="5.39347">
        <ele>599</ele>
        <time>2021-01-11T17:18:40Z</time>
      </trkpt>
      <trkpt lat="45.31398" lon="5.39329">
        <ele>599</ele>
        <time>2021-01-11T17:18:46Z</time>
      </trkpt>
      <trkpt lat="45.31412" lon="5.39297">
        <ele>596</ele>
        <time>2021-01-11T17:18:53Z</time>
      </trkpt>
      <trkpt lat="45.31407" lon="5.39234">
        <ele>593</ele>
        <time>2021-01-11T17:19:03Z</time>
      </trkpt>
      <trkpt lat="45.31417" lon="5.39215">
        <ele>592</ele>
        <time>2021-01-11T17:19:07Z</time>
      </trkpt>
      <trkpt lat="45.31421" lon="5.39197">
        <ele>592</ele>
        <time>2021-01-11T17:19:10Z</time>
      </trkpt>
      <trkpt lat="45.31431" lon="5.39186">
        <ele>593</ele>
        <time>2021-01-11T17:19:13Z</time>
      </trkpt>
      <trkpt lat="45.31393" lon="5.39089">
        <ele>590</ele>
        <time>2021-01-11T17:19:31Z</time>
      </trkpt>
      <trkpt lat="45.31369" lon="5.38994">
        <ele>589</ele>
        <time>2021-01-11T17:19:48Z</time>
      </trkpt>
      <trkpt lat="45.31368" lon="5.38985">
        <ele>589</ele>
        <time>2021-01-11T17:19:49Z</time>
      </trkpt>
      <trkpt lat="45.3131" lon="5.38804">
        <ele>587</ele>
        <time>2021-01-11T17:20:22Z</time>
      </trkpt>
      <trkpt lat="45.31252" lon="5.3866">
        <ele>581</ele>
        <time>2021-01-11T17:20:49Z</time>
      </trkpt>
      <trkpt lat="45.31234" lon="5.38609">
        <ele>583</ele>
        <time>2021-01-11T17:20:59Z</time>
      </trkpt>
      <trkpt lat="45.31229" lon="5.38547">
        <ele>583</ele>
        <time>2021-01-11T17:21:09Z</time>
      </trkpt>
      <trkpt lat="45.31237" lon="5.38506">
        <ele>583</ele>
        <time>2021-01-11T17:21:16Z</time>
      </trkpt>
      <trkpt lat="45.31251" lon="5.38476">
        <ele>582</ele>
        <time>2021-01-11T17:21:22Z</time>
      </trkpt>
      <trkpt lat="45.31264" lon="5.38461">
        <ele>582</ele>
        <time>2021-01-11T17:21:26Z</time>
      </trkpt>
      <trkpt lat="45.31296" lon="5.38448">
        <ele>584</ele>
        <time>2021-01-11T17:21:33Z</time>
      </trkpt>
      <trkpt lat="45.31321" lon="5.38432">
        <ele>584</ele>
        <time>2021-01-11T17:21:40Z</time>
      </trkpt>
      <trkpt lat="45.31382" lon="5.38403">
        <ele>577</ele>
        <time>2021-01-11T17:21:55Z</time>
      </trkpt>
      <trkpt lat="45.31417" lon="5.38373">
        <ele>573</ele>
        <time>2021-01-11T17:22:04Z</time>
      </trkpt>
      <trkpt lat="45.31482" lon="5.38286">
        <ele>564</ele>
        <time>2021-01-11T17:22:25Z</time>
      </trkpt>
      <trkpt lat="45.31499" lon="5.38253">
        <ele>561</ele>
        <time>2021-01-11T17:22:32Z</time>
      </trkpt>
      <trkpt lat="45.31502" lon="5.38218">
        <ele>560</ele>
        <time>2021-01-11T17:22:38Z</time>
      </trkpt>
      <trkpt lat="45.31495" lon="5.38159">
        <ele>557</ele>
        <time>2021-01-11T17:22:48Z</time>
      </trkpt>
      <trkpt lat="45.31492" lon="5.38135">
        <ele>556</ele>
        <time>2021-01-11T17:22:52Z</time>
      </trkpt>
      <trkpt lat="45.31493" lon="5.38112">
        <ele>556</ele>
        <time>2021-01-11T17:22:55Z</time>
      </trkpt>
      <trkpt lat="45.31504" lon="5.38052">
        <ele>555</ele>
        <time>2021-01-11T17:23:06Z</time>
      </trkpt>
      <trkpt lat="45.31504" lon="5.37971">
        <ele>552</ele>
        <time>2021-01-11T17:23:19Z</time>
      </trkpt>
      <trkpt lat="45.31511" lon="5.37955">
        <ele>551</ele>
        <time>2021-01-11T17:23:22Z</time>
      </trkpt>
      <trkpt lat="45.3163" lon="5.37767">
        <ele>542</ele>
        <time>2021-01-11T17:24:03Z</time>
      </trkpt>
      <trkpt lat="45.31694" lon="5.37673">
        <ele>535</ele>
        <time>2021-01-11T17:24:25Z</time>
      </trkpt>
      <trkpt lat="45.3171" lon="5.37652">
        <ele>533</ele>
        <time>2021-01-11T17:24:30Z</time>
      </trkpt>
      <trkpt lat="45.31742" lon="5.37633">
        <ele>531</ele>
        <time>2021-01-11T17:24:38Z</time>
      </trkpt>
      <trkpt lat="45.31765" lon="5.37609">
        <ele>530</ele>
        <time>2021-01-11T17:24:45Z</time>
      </trkpt>
      <trkpt lat="45.31774" lon="5.37573">
        <ele>529</ele>
        <time>2021-01-11T17:24:51Z</time>
      </trkpt>
      <trkpt lat="45.31782" lon="5.37558">
        <ele>527</ele>
        <time>2021-01-11T17:24:54Z</time>
      </trkpt>
      <trkpt lat="45.31805" lon="5.37538">
        <ele>525</ele>
        <time>2021-01-11T17:25:00Z</time>
      </trkpt>
      <trkpt lat="45.31819" lon="5.37523">
        <ele>525</ele>
        <time>2021-01-11T17:25:05Z</time>
      </trkpt>
      <trkpt lat="45.31832" lon="5.37505">
        <ele>525</ele>
        <time>2021-01-11T17:25:09Z</time>
      </trkpt>
      <trkpt lat="45.31878" lon="5.37401">
        <ele>522</ele>
        <time>2021-01-11T17:25:29Z</time>
      </trkpt>
      <trkpt lat="45.31892" lon="5.37323">
        <ele>522</ele>
        <time>2021-01-11T17:25:42Z</time>
      </trkpt>
      <trkpt lat="45.31907" lon="5.37278">
        <ele>524</ele>
        <time>2021-01-11T17:25:50Z</time>
      </trkpt>
      <trkpt lat="45.31922" lon="5.37243">
        <ele>523</ele>
        <time>2021-01-11T17:25:57Z</time>
      </trkpt>
      <trkpt lat="45.31944" lon="5.37219">
        <ele>519</ele>
        <time>2021-01-11T17:26:04Z</time>
      </trkpt>
      <trkpt lat="45.32021" lon="5.3712">
        <ele>506</ele>
        <time>2021-01-11T17:26:28Z</time>
      </trkpt>
      <trkpt lat="45.32093" lon="5.36999">
        <ele>497</ele>
        <time>2021-01-11T17:26:54Z</time>
      </trkpt>
      <trkpt lat="45.32108" lon="5.36967">
        <ele>492</ele>
        <time>2021-01-11T17:27:00Z</time>
      </trkpt>
      <trkpt lat="45.32149" lon="5.36928">
        <ele>492</ele>
        <time>2021-01-11T17:27:12Z</time>
      </trkpt>
      <trkpt lat="45.32183" lon="5.36881">
        <ele>487</ele>
        <time>2021-01-11T17:27:23Z</time>
      </trkpt>
      <trkpt lat="45.32206" lon="5.36838">
        <ele>480</ele>
        <time>2021-01-11T17:27:32Z</time>
      </trkpt>
      <trkpt lat="45.3226" lon="5.36758">
        <ele>470</ele>
        <time>2021-01-11T17:27:50Z</time>
      </trkpt>
      <trkpt lat="45.32288" lon="5.36758">
        <ele>467</ele>
        <time>2021-01-11T17:27:56Z</time>
      </trkpt>
      <trkpt lat="45.3229" lon="5.36737">
        <ele>465</ele>
        <time>2021-01-11T17:28:00Z</time>
      </trkpt>
      <trkpt lat="45.32282" lon="5.36707">
        <ele>463</ele>
        <time>2021-01-11T17:28:05Z</time>
      </trkpt>
      <trkpt lat="45.32266" lon="5.36667">
        <ele>459</ele>
        <time>2021-01-11T17:28:13Z</time>
      </trkpt>
      <trkpt lat="45.32301" lon="5.36647">
        <ele>459</ele>
        <time>2021-01-11T17:28:22Z</time>
      </trkpt>
      <trkpt lat="45.32363" lon="5.36584">
        <ele>458</ele>
        <time>2021-01-11T17:28:39Z</time>
      </trkpt>
      <trkpt lat="45.32396" lon="5.36554">
        <ele>457</ele>
        <time>2021-01-11T17:28:48Z</time>
      </trkpt>
      <trkpt lat="45.32416" lon="5.36547">
        <ele>457</ele>
        <time>2021-01-11T17:28:53Z</time>
      </trkpt>
      <trkpt lat="45.32433" lon="5.36533">
        <ele>461</ele>
        <time>2021-01-11T17:28:58Z</time>
      </trkpt>
      <trkpt lat="45.32467" lon="5.36439">
        <ele>461</ele>
        <time>2021-01-11T17:29:15Z</time>
      </trkpt>
      <trkpt lat="45.32542" lon="5.36292">
        <ele>466</ele>
        <time>2021-01-11T17:29:45Z</time>
      </trkpt>
      <trkpt lat="45.3255" lon="5.36271">
        <ele>467</ele>
        <time>2021-01-11T17:29:49Z</time>
      </trkpt>
      <trkpt lat="45.32578" lon="5.36183">
        <ele>467</ele>
        <time>2021-01-11T17:30:05Z</time>
      </trkpt>
      <trkpt lat="45.32592" lon="5.36131">
        <ele>469</ele>
        <time>2021-01-11T17:30:14Z</time>
      </trkpt>
      <trkpt lat="45.32604" lon="5.36075">
        <ele>471</ele>
        <time>2021-01-11T17:30:24Z</time>
      </trkpt>
      <trkpt lat="45.32618" lon="5.35914">
        <ele>468</ele>
        <time>2021-01-11T17:30:50Z</time>
      </trkpt>
      <trkpt lat="45.32633" lon="5.35811">
        <ele>468</ele>
        <time>2021-01-11T17:31:07Z</time>
      </trkpt>
      <trkpt lat="45.32684" lon="5.35782">
        <ele>474</ele>
        <time>2021-01-11T17:31:20Z</time>
      </trkpt>
      <trkpt lat="45.32756" lon="5.3572">
        <ele>476</ele>
        <time>2021-01-11T17:31:40Z</time>
      </trkpt>
      <trkpt lat="45.32774" lon="5.35703">
        <ele>476</ele>
        <time>2021-01-11T17:31:45Z</time>
      </trkpt>
      <trkpt lat="45.32777" lon="5.35677">
        <ele>475</ele>
        <time>2021-01-11T17:31:49Z</time>
      </trkpt>
      <trkpt lat="45.32819" lon="5.35653">
        <ele>474</ele>
        <time>2021-01-11T17:32:00Z</time>
      </trkpt>
      <trkpt lat="45.3284" lon="5.35637">
        <ele>473</ele>
        <time>2021-01-11T17:32:05Z</time>
      </trkpt>
      <trkpt lat="45.32861" lon="5.35614">
        <ele>472</ele>
        <time>2021-01-11T17:32:12Z</time>
      </trkpt>
      <trkpt lat="45.32904" lon="5.3552">
        <ele>469</ele>
        <time>2021-01-11T17:32:30Z</time>
      </trkpt>
      <trkpt lat="45.32947" lon="5.3546">
        <ele>467</ele>
        <time>2021-01-11T17:32:44Z</time>
      </trkpt>
      <trkpt lat="45.32962" lon="5.35451">
        <ele>467</ele>
        <time>2021-01-11T17:32:48Z</time>
      </trkpt>
      <trkpt lat="45.3307" lon="5.35373">
        <ele>458</ele>
        <time>2021-01-11T17:33:16Z</time>
      </trkpt>
      <trkpt lat="45.3314" lon="5.35296">
        <ele>452</ele>
        <time>2021-01-11T17:33:37Z</time>
      </trkpt>
      <trkpt lat="45.33174" lon="5.35265">
        <ele>449</ele>
        <time>2021-01-11T17:33:46Z</time>
      </trkpt>
      <trkpt lat="45.33192" lon="5.35146">
        <ele>445</ele>
        <time>2021-01-11T17:34:06Z</time>
      </trkpt>
      <trkpt lat="45.33206" lon="5.351">
        <ele>445</ele>
        <time>2021-01-11T17:34:15Z</time>
      </trkpt>
      <trkpt lat="45.33234" lon="5.35046">
        <ele>442</ele>
        <time>2021-01-11T17:34:26Z</time>
      </trkpt>
      <trkpt lat="45.33244" lon="5.35022">
        <ele>441</ele>
        <time>2021-01-11T17:34:30Z</time>
      </trkpt>
      <trkpt lat="45.33267" lon="5.34999">
        <ele>439</ele>
        <time>2021-01-11T17:34:37Z</time>
      </trkpt>
      <trkpt lat="45.33295" lon="5.34949">
        <ele>438</ele>
        <time>2021-01-11T17:34:47Z</time>
      </trkpt>
      <trkpt lat="45.33345" lon="5.34879">
        <ele>437</ele>
        <time>2021-01-11T17:35:04Z</time>
      </trkpt>
      <trkpt lat="45.33377" lon="5.34817">
        <ele>436</ele>
        <time>2021-01-11T17:35:16Z</time>
      </trkpt>
      <trkpt lat="45.33422" lon="5.34776">
        <ele>436</ele>
        <time>2021-01-11T17:35:29Z</time>
      </trkpt>
      <trkpt lat="45.33475" lon="5.34731">
        <ele>435</ele>
        <time>2021-01-11T17:35:43Z</time>
      </trkpt>
      <trkpt lat="45.33518" lon="5.34688">
        <ele>430</ele>
        <time>2021-01-11T17:35:55Z</time>
      </trkpt>
      <trkpt lat="45.33604" lon="5.3463">
        <ele>420</ele>
        <time>2021-01-11T17:36:18Z</time>
      </trkpt>
      <trkpt lat="45.33633" lon="5.34616">
        <ele>418</ele>
        <time>2021-01-11T17:36:25Z</time>
      </trkpt>
      <trkpt lat="45.3366" lon="5.34621">
        <ele>418</ele>
        <time>2021-01-11T17:36:31Z</time>
      </trkpt>
      <trkpt lat="45.33681" lon="5.34616">
        <ele>417</ele>
        <time>2021-01-11T17:36:36Z</time>
      </trkpt>
    </trkseg>
  </trk>
</gpx>